Observation data for Amarillo 15 North Northwest on 08/14/2019      Previous  Date  Next       Current Mesonet Observations  Soil Data  Daily Summary Page  Observations in Plain Language
KAM3 140500Z 12012KT 24/19 A3017 RMK A01 T02420193  RH  074%=      5-min Rain = 0
KAM3 140501Z 11012KT 24/19 A3017 RMK A01 T02420193  RH  074%=      5-min Rain = 0
KAM3 140502Z 11011KT 24/19 A3017 RMK A01 T02420193  RH  074%=      5-min Rain = 0
KAM3 140503Z 11010KT 24/19 A3017 RMK A01 T02420193  RH  074%=      5-min Rain = 0
KAM3 140504Z 11010KT 24/19 A3017 RMK A01 T02420194  RH  074%=      5-min Rain = 0
KAM3 140505Z 10010KT 24/19 A3018 RMK A01 T02410194  RH  075%=      5-min Rain = 0
KAM3 140506Z 11011KT 24/19 A3018 RMK A01 T02400194  RH  075%=      5-min Rain = 0
KAM3 140507Z 10012KT 24/19 A3018 RMK A01 T02400194  RH  075%=      5-min Rain = 0
KAM3 140508Z 10010KT 24/19 A3018 RMK A01 T02400194  RH  075%=      5-min Rain = 0
KAM3 140509Z 10012KT 24/19 A3019 RMK A01 T02400194  RH  075%=      5-min Rain = 0
KAM3 140510Z 09011KT 24/19 A3019 RMK A01 T02400193  RH  075%=      5-min Rain = 0
KAM3 140524Z 10012KT 24/19 A3019 RMK A01 T02420192  RH  074%=      5-min Rain = 0
KAM3 140525Z 10015KT 24/19 A3019 RMK A01 T02430192  RH  074%=      5-min Rain = 0
KAM3 140526Z 10011KT 24/19 A3019 RMK A01 T02420192  RH  073%=      5-min Rain = 0
KAM3 140527Z 10013G18KT 24/19 A3019 RMK A01 T02430192  RH  073%=      5-min Rain = 0
KAM3 140528Z 10012KT 24/19 A3019 RMK A01 T02430192  RH  073%=      5-min Rain = 0
KAM3 140529Z 11013G18KT 24/19 A3019 RMK A01 T02430193  RH  073%=      5-min Rain = 0
KAM3 140530Z 11013KT 24/19 A3019 RMK A01 T02430193  RH  073%=      5-min Rain = 0
KAM3 140531Z 11012KT 24/19 A3019 RMK A01 T02430192  RH  073%=      5-min Rain = 0
KAM3 140532Z 11012KT 24/19 A3019 RMK A01 T02430193  RH  074%=      5-min Rain = 0
KAM3 140533Z 11010KT 24/19 A3019 RMK A01 T02420193  RH  074%=      5-min Rain = 0
KAM3 140534Z 11011KT 24/19 A3019 RMK A01 T02420193  RH  074%=      5-min Rain = 0
KAM3 140535Z 11013KT 24/19 A3019 RMK A01 T02410192  RH  074%=      5-min Rain = 0
KAM3 140536Z 11013KT 24/19 A3019 RMK A01 T02420192  RH  074%=      5-min Rain = 0
KAM3 140537Z 11014KT 24/19 A3019 RMK A01 T02420192  RH  074%=      5-min Rain = 0
KAM3 140538Z 11012KT 24/19 A3019 RMK A01 T02420192  RH  073%=      5-min Rain = 0
KAM3 140539Z 11011KT 24/19 A3019 RMK A01 T02430193  RH  074%=      5-min Rain = 0
KAM3 140540Z 11011KT 24/19 A3019 RMK A01 T02420193  RH  074%=      5-min Rain = 0
KAM3 140541Z 11012KT 24/19 A3019 RMK A01 T02410193  RH  074%=      5-min Rain = 0
KAM3 140542Z 11012KT 24/19 A3019 RMK A01 T02410192  RH  074%=      5-min Rain = 0
KAM3 140543Z 11011KT 24/19 A3019 RMK A01 T02410192  RH  074%=      5-min Rain = 0
KAM3 140544Z 11009KT 24/19 A3019 RMK A01 T02410192  RH  074%=      5-min Rain = 0
KAM3 140545Z 11010G15KT 24/19 A3019 RMK A01 T02400193  RH  075%=      5-min Rain = 0
KAM3 140546Z 11011KT 24/19 A3019 RMK A01 T02400192  RH  075%=      5-min Rain = 0
KAM3 140547Z 11009KT 24/19 A3019 RMK A01 T02400192  RH  075%=      5-min Rain = 0
KAM3 140548Z 11009KT 24/19 A3019 RMK A01 T02400192  RH  075%=      5-min Rain = 0
KAM3 140549Z 11011KT 24/19 A302 RMK A01 T02400192  RH  075%=      5-min Rain = 0
KAM3 140550Z 11010KT 24/19 A302 RMK A01 T02400192  RH  075%=      5-min Rain = 0
KAM3 140551Z 11009KT 24/19 A302 RMK A01 T02400193  RH  075%=      5-min Rain = 0
KAM3 140552Z 11010KT 24/19 A302 RMK A01 T02400192  RH  075%=      5-min Rain = 0
KAM3 140553Z 11009KT 24/19 A302 RMK A01 T02400193  RH  075%=      5-min Rain = 0
KAM3 140554Z 11010KT 24/19 A302 RMK A01 T02390192  RH  075%=      5-min Rain = 0
KAM3 140555Z 11009KT 24/19 A302 RMK A01 T02390193  RH  075%=      5-min Rain = 0
KAM3 140556Z 11008KT 24/19 A302 RMK A01 T02390193  RH  076%=      5-min Rain = 0
KAM3 140557Z 11009KT 24/19 A302 RMK A01 T02380193  RH  076%=      5-min Rain = 0
KAM3 140558Z 10010KT 24/19 A302 RMK A01 T02380193  RH  076%=      5-min Rain = 0
KAM3 140559Z 06012G17KT 24/19 A3021 RMK A01 T02380193  RH  076%=      5-min Rain = 0
KAM3 140600Z 04019KT 24/19 A3022 RMK A01 T02370192  RH  076%=      5-min Rain = 0
KAM3 140601Z 04020KT 24/18 A3022 RMK A01 T02350183  RH  073%=      5-min Rain = 0
KAM3 140602Z 04017KT 23/18 A3022 RMK A01 T02320178  RH  072%=      5-min Rain = 0
KAM3 140603Z 04016KT 23/18 A3022 RMK A01 T02290177  RH  072%=      5-min Rain = 0
KAM3 140604Z 04018G24KT 23/18 A3022 RMK A01 T02280177  RH  073%=      5-min Rain = 0
KAM3 140605Z 05021G27KT 23/18 A3023 RMK A01 T02270176  RH  073%=      5-min Rain = 0
KAM3 140606Z 05023KT 23/17 A3023 RMK A01 T02260173  RH  072%=      5-min Rain = 0
KAM3 140607Z 05023G28KT 23/17 A3023 RMK A01 T02250169  RH  070%=      5-min Rain = 0
KAM3 140608Z 06021G26KT 22/17 A3023 RMK A01 T02240166  RH  070%=      5-min Rain = 0
KAM3 140609Z 05018G26KT 22/17 A3023 RMK A01 T02230165  RH  070%=      5-min Rain = 0
KAM3 140610Z 05020KT 22/16 A3023 RMK A01 T02210161  RH  069%=      5-min Rain = 0
KAM3 140611Z 06019KT 22/16 A3023 RMK A01 T02190159  RH  069%=      5-min Rain = 0
KAM3 140612Z 06018G23KT 22/16 A3023 RMK A01 T02170158  RH  069%=      5-min Rain = 0
KAM3 140613Z 06022G27KT 22/16 A3023 RMK A01 T02160157  RH  069%=      5-min Rain = 0
KAM3 140614Z 06018G25KT 22/16 A3023 RMK A01 T02160155  RH  068%=      5-min Rain = 0
KAM3 140615Z 06014G20KT 22/16 A3023 RMK A01 T02150155  RH  069%=      5-min Rain = 0
KAM3 140616Z 06014KT 21/16 A3023 RMK A01 T02140155  RH  069%=      5-min Rain = 0
KAM3 140617Z 06018G23KT 21/15 A3024 RMK A01 T02140154  RH  069%=      5-min Rain = 0
KAM3 140618Z 06017KT 21/15 A3024 RMK A01 T02140153  RH  068%=      5-min Rain = 0
KAM3 140619Z 07016G21KT 21/15 A3024 RMK A01 T02130153  RH  068%=      5-min Rain = 0
KAM3 140620Z 06015KT 21/15 A3024 RMK A01 T02120152  RH  068%=      5-min Rain = 0
KAM3 140621Z 06013G18KT 21/15 A3024 RMK A01 T02120153  RH  069%=      5-min Rain = 0
KAM3 140622Z 05014KT 21/15 A3024 RMK A01 T02120153  RH  069%=      5-min Rain = 0
KAM3 140623Z 06019KT 21/15 A3024 RMK A01 T02110152  RH  069%=      5-min Rain = 0
KAM3 140624Z 06017KT 21/15 A3024 RMK A01 T02110151  RH  069%=      5-min Rain = 0
KAM3 140625Z 06017KT 21/15 A3024 RMK A01 T02110151  RH  069%=      5-min Rain = 0
KAM3 140626Z 06017KT 21/15 A3024 RMK A01 T02100150  RH  068%=      5-min Rain = 0
KAM3 140627Z 06017KT 21/15 A3024 RMK A01 T02100149  RH  068%=      5-min Rain = 0
KAM3 140628Z 06019KT 21/15 A3024 RMK A01 T02090149  RH  068%=      5-min Rain = 0
KAM3 140629Z 06017G22KT 21/15 A3024 RMK A01 T02080148  RH  068%=      5-min Rain = 0
KAM3 140630Z 06015G20KT 21/15 A3024 RMK A01 T02080148  RH  069%=      5-min Rain = 0
KAM3 140631Z 06016KT 21/15 A3024 RMK A01 T02070147  RH  069%=      5-min Rain = 0
KAM3 140632Z 06016KT 21/15 A3024 RMK A01 T02060147  RH  069%=      5-min Rain = 0
KAM3 140633Z 06015KT 21/15 A3024 RMK A01 T02060147  RH  069%=      5-min Rain = 0
KAM3 140634Z 06012KT 21/15 A3023 RMK A01 T02050148  RH  069%=      5-min Rain = 0
KAM3 140635Z 06012KT 20/15 A3023 RMK A01 T02040147  RH  070%=      5-min Rain = 0
KAM3 140636Z 06010G16KT 20/15 A3023 RMK A01 T02040148  RH  070%=      5-min Rain = 0
KAM3 140637Z 05009KT 20/15 A3023 RMK A01 T02030148  RH  071%=      5-min Rain = 0
KAM3 140638Z 06013KT 20/15 A3023 RMK A01 T02020148  RH  071%=      5-min Rain = 0
KAM3 140639Z 06014KT 20/15 A3023 RMK A01 T02020148  RH  071%=      5-min Rain = 0
KAM3 140640Z 06017G22KT 20/15 A3023 RMK A01 T02020146  RH  070%=      5-min Rain = 0
KAM3 140641Z 07019G24KT 20/14 A3023 RMK A01 T02020144  RH  069%=      5-min Rain = 0
KAM3 140642Z 06017G22KT 20/14 A3023 RMK A01 T02020143  RH  069%=      5-min Rain = 0
KAM3 140643Z 06018G25KT 20/14 A3023 RMK A01 T02020143  RH  069%=      5-min Rain = 0
KAM3 140644Z 06019G24KT 20/14 A3023 RMK A01 T02010142  RH  069%=      5-min Rain = 0
KAM3 140645Z 06017G23KT 20/14 A3022 RMK A01 T02010141  RH  069%=      5-min Rain = 0
KAM3 140646Z 06016KT 20/14 A3023 RMK A01 T02000141  RH  069%=      5-min Rain = 0
KAM3 140647Z 06020KT 20/14 A3023 RMK A01 T01990141  RH  069%=      5-min Rain = 0
KAM3 140648Z 06021KT 20/14 A3023 RMK A01 T01990140  RH  069%=      5-min Rain = 0
KAM3 140649Z 06019KT 20/14 A3023 RMK A01 T01990140  RH  069%=      5-min Rain = 0
KAM3 140650Z 06016KT 20/14 A3023 RMK A01 T01990140  RH  069%=      5-min Rain = 0
KAM3 140651Z 06014KT 20/14 A3023 RMK A01 T01980140  RH  069%=      5-min Rain = 0
KAM3 140652Z 05015G20KT 20/14 A3023 RMK A01 T01970140  RH  069%=      5-min Rain = 0
KAM3 140653Z 06017KT 20/14 A3023 RMK A01 T01970140  RH  070%=      5-min Rain = 0
KAM3 140654Z 06018G23KT 20/14 A3023 RMK A01 T01970140  RH  070%=      5-min Rain = 0
KAM3 140655Z 06016KT 20/14 A3023 RMK A01 T01970140  RH  069%=      5-min Rain = 0
KAM3 140656Z 05014KT 20/14 A3023 RMK A01 T01970140  RH  070%=      5-min Rain = 0
KAM3 140657Z 05012KT 20/14 A3023 RMK A01 T01960141  RH  070%=      5-min Rain = 0
KAM3 140658Z 06010KT 20/14 A3023 RMK A01 T01950141  RH  071%=      5-min Rain = 0
KAM3 140659Z 05010KT 19/14 A3023 RMK A01 T01940141  RH  071%=      5-min Rain = 0
KAM3 140700Z 06011KT 19/14 A3023 RMK A01 T01940141  RH  072%=      5-min Rain = 0
KAM3 140701Z 06015KT 19/14 A3023 RMK A01 T01930141  RH  072%=      5-min Rain = 0
KAM3 140702Z 05014KT 19/14 A3023 RMK A01 T01930140  RH  072%=      5-min Rain = 0
KAM3 140703Z 06013KT 19/14 A3023 RMK A01 T01930140  RH  071%=      5-min Rain = 0
KAM3 140704Z 06013KT 19/14 A3023 RMK A01 T01920140  RH  071%=      5-min Rain = 0
KAM3 140705Z 05014KT 19/14 A3023 RMK A01 T01920140  RH  072%=      5-min Rain = 0
KAM3 140706Z 05011KT 19/14 A3023 RMK A01 T01920140  RH  072%=      5-min Rain = 0
KAM3 140707Z 06012KT 19/14 A3023 RMK A01 T01910140  RH  072%=      5-min Rain = 0
KAM3 140708Z 05013KT 19/14 A3023 RMK A01 T01910139  RH  072%=      5-min Rain = 0
KAM3 140709Z 06012G17KT 19/14 A3023 RMK A01 T01910139  RH  072%=      5-min Rain = 0
KAM3 140710Z 05014KT 19/14 A3023 RMK A01 T01910139  RH  072%=      5-min Rain = 0
KAM3 140711Z 05015KT 19/14 A3023 RMK A01 T01910139  RH  072%=      5-min Rain = 0
KAM3 140712Z 05012KT 19/14 A3023 RMK A01 T01900138  RH  072%=      5-min Rain = 0
KAM3 140713Z 05011G17KT 19/14 A3023 RMK A01 T01900139  RH  072%=      5-min Rain = 0
KAM3 140714Z 05013KT 19/14 A3023 RMK A01 T01900139  RH  072%=      5-min Rain = 0
KAM3 140715Z 06013KT 19/14 A3023 RMK A01 T01900139  RH  072%=      5-min Rain = 0
KAM3 140716Z 06013G19KT 19/14 A3023 RMK A01 T01900139  RH  072%=      5-min Rain = 0
KAM3 140717Z 06015KT 19/14 A3023 RMK A01 T01900138  RH  072%=      5-min Rain = 0
KAM3 140718Z 06011KT 19/14 A3023 RMK A01 T01900139  RH  072%=      5-min Rain = 0
KAM3 140719Z 05010KT 19/14 A3023 RMK A01 T01890139  RH  073%=      5-min Rain = 0
KAM3 140720Z 05011KT 19/14 A3023 RMK A01 T01890139  RH  073%=      5-min Rain = 0
KAM3 140721Z 05010KT 19/14 A3023 RMK A01 T01880139  RH  073%=      5-min Rain = 0
KAM3 140722Z 05011KT 19/14 A3023 RMK A01 T01880139  RH  073%=      5-min Rain = 0
KAM3 140723Z 05011KT 19/14 A3023 RMK A01 T01880139  RH  073%=      5-min Rain = 0
KAM3 140724Z 05011KT 19/14 A3023 RMK A01 T01880139  RH  073%=      5-min Rain = 0
KAM3 140725Z 05009KT 19/14 A3023 RMK A01 T01880139  RH  073%=      5-min Rain = 0
KAM3 140726Z 05010KT 19/14 A3023 RMK A01 T01870139  RH  074%=      5-min Rain = 0
KAM3 140727Z 05011KT 19/14 A3023 RMK A01 T01870139  RH  074%=      5-min Rain = 0
KAM3 140728Z 05009KT 19/14 A3023 RMK A01 T01860139  RH  074%=      5-min Rain = 0
KAM3 140729Z 05011KT 19/14 A3022 RMK A01 T01870139  RH  074%=      5-min Rain = 0
KAM3 140730Z 05011KT 19/14 A3022 RMK A01 T01870139  RH  074%=      5-min Rain = 0
KAM3 140731Z 06011KT 19/14 A3022 RMK A01 T01860138  RH  074%=      5-min Rain = 0
KAM3 140732Z 05010KT 19/14 A3022 RMK A01 T01860139  RH  074%=      5-min Rain = 0
KAM3 140733Z 05011KT 19/14 A3022 RMK A01 T01860139  RH  074%=      5-min Rain = 0
KAM3 140734Z 06012KT 19/14 A3022 RMK A01 T01860139  RH  074%=      5-min Rain = 0
KAM3 140735Z 06010KT 19/14 A3022 RMK A01 T01860138  RH  074%=      5-min Rain = 0
KAM3 140736Z 06009KT 19/14 A3022 RMK A01 T01860139  RH  074%=      5-min Rain = 0
KAM3 140737Z 06010KT 19/14 A3022 RMK A01 T01850139  RH  074%=      5-min Rain = 0
KAM3 140738Z 06010KT 19/14 A3022 RMK A01 T01850139  RH  075%=      5-min Rain = 0
KAM3 140739Z 06011KT 18/14 A3022 RMK A01 T01840138  RH  075%=      5-min Rain = 0
KAM3 140740Z 06011KT 18/14 A3022 RMK A01 T01840138  RH  074%=      5-min Rain = 0
KAM3 140741Z 06011KT 18/14 A3021 RMK A01 T01840138  RH  074%=      5-min Rain = 0
KAM3 140742Z 06010KT 18/14 A3021 RMK A01 T01840138  RH  074%=      5-min Rain = 0
KAM3 140743Z 07010KT 18/14 A3021 RMK A01 T01840138  RH  075%=      5-min Rain = 0
KAM3 140744Z 07011KT 18/14 A3021 RMK A01 T01830138  RH  075%=      5-min Rain = 0
KAM3 140745Z 06009KT 18/14 A3021 RMK A01 T01830138  RH  075%=      5-min Rain = 0
KAM3 140746Z 06009KT 18/14 A3021 RMK A01 T01830138  RH  075%=      5-min Rain = 0
KAM3 140747Z 06011KT 18/14 A3021 RMK A01 T01830137  RH  075%=      5-min Rain = 0
KAM3 140748Z 07010KT 18/14 A3021 RMK A01 T01830137  RH  075%=      5-min Rain = 0
KAM3 140749Z 06009KT 18/14 A3021 RMK A01 T01830137  RH  075%=      5-min Rain = 0
KAM3 140750Z 06009KT 18/14 A3021 RMK A01 T01830137  RH  075%=      5-min Rain = 0
KAM3 140751Z 06009KT 18/14 A3021 RMK A01 T01830138  RH  075%=      5-min Rain = 0
KAM3 140752Z 06009KT 18/14 A3021 RMK A01 T01830138  RH  075%=      5-min Rain = 0
KAM3 140753Z 07010KT 18/14 A3021 RMK A01 T01830138  RH  075%=      5-min Rain = 0
KAM3 140754Z 06010KT 18/14 A3021 RMK A01 T01820137  RH  075%=      5-min Rain = 0
KAM3 140755Z 07009KT 18/14 A3021 RMK A01 T01830137  RH  075%=      5-min Rain = 0
KAM3 140756Z 07009KT 18/14 A3021 RMK A01 T01820137  RH  075%=      5-min Rain = 0
KAM3 140757Z 06008KT 18/14 A3021 RMK A01 T01820137  RH  075%=      5-min Rain = 0
KAM3 140758Z 07008KT 18/14 A3021 RMK A01 T01820137  RH  075%=      5-min Rain = 0
KAM3 140759Z 07007KT 18/14 A3021 RMK A01 T01810137  RH  075%=      5-min Rain = 0
KAM3 140800Z 07006KT 18/14 A3021 RMK A01 T01810138  RH  076%=      5-min Rain = 0
KAM3 140801Z 07007KT 18/14 A3021 RMK A01 T01810138  RH  076%=      5-min Rain = 0
KAM3 140802Z 07008KT 18/14 A3021 RMK A01 T01800137  RH  076%=      5-min Rain = 0
KAM3 140803Z 07009KT 18/14 A3021 RMK A01 T01800137  RH  076%=      5-min Rain = 0
KAM3 140804Z 07008KT 18/14 A3021 RMK A01 T01800137  RH  076%=      5-min Rain = 0
KAM3 140805Z 06007KT 18/14 A3022 RMK A01 T01800137  RH  076%=      5-min Rain = 0
KAM3 140806Z 07008KT 18/14 A3022 RMK A01 T01800137  RH  076%=      5-min Rain = 0
KAM3 140807Z 06007KT 18/14 A3022 RMK A01 T01800137  RH  076%=      5-min Rain = 0
KAM3 140808Z 06008KT 18/14 A3022 RMK A01 T01800137  RH  076%=      5-min Rain = 0
KAM3 140809Z 06006KT 18/14 A3022 RMK A01 T01800137  RH  076%=      5-min Rain = 0
KAM3 140810Z 06007KT 18/14 A3022 RMK A01 T01800137  RH  076%=      5-min Rain = 0
KAM3 140811Z 05006KT 18/14 A3022 RMK A01 T01800138  RH  076%=      5-min Rain = 0
KAM3 140812Z 05007KT 18/14 A3023 RMK A01 T01790137  RH  077%=      5-min Rain = 0
KAM3 140813Z 04008KT 18/14 A3023 RMK A01 T01790137  RH  076%=      5-min Rain = 0
KAM3 140814Z 04007KT 18/14 A3023 RMK A01 T01790138  RH  077%=      5-min Rain = 0
KAM3 140815Z 04007KT 18/14 A3023 RMK A01 T01790137  RH  077%=      5-min Rain = 0
KAM3 140816Z 04007KT 18/14 A3023 RMK A01 T01780138  RH  077%=      5-min Rain = 0
KAM3 140817Z 04007KT 18/14 A3023 RMK A01 T01780138  RH  077%=      5-min Rain = 0
KAM3 140818Z 04007KT 18/14 A3023 RMK A01 T01780138  RH  077%=      5-min Rain = 0
KAM3 140819Z 05007KT 18/14 A3023 RMK A01 T01780138  RH  077%=      5-min Rain = 0
KAM3 140820Z 05006KT 18/14 A3023 RMK A01 T01780138  RH  077%=      5-min Rain = 0
KAM3 140821Z 05006KT 18/14 A3023 RMK A01 T01770138  RH  078%=      5-min Rain = 0
KAM3 140822Z 05006KT 18/14 A3023 RMK A01 T01770138  RH  078%=      5-min Rain = 0
KAM3 140823Z 05006KT 18/14 A3023 RMK A01 T01770138  RH  078%=      5-min Rain = 0
KAM3 140824Z 05006KT 18/14 A3023 RMK A01 T01770138  RH  078%=      5-min Rain = 0
KAM3 140825Z 06006KT 18/14 A3023 RMK A01 T01770138  RH  078%=      5-min Rain = 0
KAM3 140826Z 06006KT 18/14 A3023 RMK A01 T01770138  RH  078%=      5-min Rain = 0
KAM3 140827Z 06004KT 18/14 A3023 RMK A01 T01770139  RH  078%=      5-min Rain = 0
KAM3 140828Z 05005KT 18/14 A3023 RMK A01 T01770139  RH  078%=      5-min Rain = 0
KAM3 140829Z 06005KT 18/14 A3023 RMK A01 T01760139  RH  079%=      5-min Rain = 0
KAM3 140830Z 05005KT 18/14 A3023 RMK A01 T01760139  RH  079%=      5-min Rain = 0
KAM3 140831Z 05005KT 18/14 A3023 RMK A01 T01760139  RH  079%=      5-min Rain = 0
KAM3 140832Z 05005KT 18/14 A3023 RMK A01 T01760139  RH  079%=      5-min Rain = 0
KAM3 140833Z 04006KT 18/14 A3023 RMK A01 T01750139  RH  079%=      5-min Rain = 0
KAM3 140834Z 04007KT 17/14 A3024 RMK A01 T01740140  RH  080%=      5-min Rain = 0
KAM3 140835Z 04007KT 17/14 A3024 RMK A01 T01740140  RH  081%=      5-min Rain = 0
KAM3 140836Z 04007KT 17/14 A3024 RMK A01 T01730140  RH  081%=      5-min Rain = 0
KAM3 140837Z 03007KT 17/14 A3024 RMK A01 T01730141  RH  081%=      5-min Rain = 0
KAM3 140838Z 03007KT 17/14 A3024 RMK A01 T01730140  RH  081%=      5-min Rain = 0
KAM3 140839Z 03007KT 17/14 A3024 RMK A01 T01730140  RH  081%=      5-min Rain = 0
KAM3 140840Z 04008KT 17/14 A3024 RMK A01 T01730140  RH  081%=      5-min Rain = 0
KAM3 140841Z 04007KT 17/14 A3024 RMK A01 T01730140  RH  081%=      5-min Rain = 0
KAM3 140842Z 04008KT 17/14 A3024 RMK A01 T01720140  RH  081%=      5-min Rain = 0
KAM3 140843Z 04008KT 17/14 A3024 RMK A01 T01730140  RH  081%=      5-min Rain = 0
KAM3 140844Z 03008KT 17/14 A3024 RMK A01 T01730140  RH  081%=      5-min Rain = 0
KAM3 140845Z 03008KT 17/14 A3024 RMK A01 T01730140  RH  081%=      5-min Rain = 0
KAM3 140846Z 03008KT 17/14 A3024 RMK A01 T01730140  RH  081%=      5-min Rain = 0
KAM3 140847Z 03009KT 17/14 A3024 RMK A01 T01730139  RH  080%=      5-min Rain = 0
KAM3 140848Z 03009KT 18/14 A3024 RMK A01 T01750139  RH  080%=      5-min Rain = 0
KAM3 140849Z 03009KT 18/14 A3024 RMK A01 T01760139  RH  079%=      5-min Rain = 0
KAM3 140850Z 03008KT 18/14 A3024 RMK A01 T01770139  RH  079%=      5-min Rain = 0
KAM3 140851Z 03007KT 18/14 A3024 RMK A01 T01770139  RH  078%=      5-min Rain = 0
KAM3 140852Z 02008KT 18/14 A3025 RMK A01 T01780139  RH  078%=      5-min Rain = 0
KAM3 140853Z 02006KT 18/14 A3025 RMK A01 T01790139  RH  077%=      5-min Rain = 0
KAM3 140854Z 02006KT 18/14 A3025 RMK A01 T01790139  RH  077%=      5-min Rain = 0
KAM3 140855Z 02006KT 18/14 A3025 RMK A01 T01800140  RH  077%=      5-min Rain = 0
KAM3 140856Z 03007KT 18/14 A3025 RMK A01 T01800139  RH  077%=      5-min Rain = 0
KAM3 140857Z 04007KT 18/14 A3025 RMK A01 T01810138  RH  076%=      5-min Rain = 0
KAM3 140858Z 04007KT 18/14 A3025 RMK A01 T01820139  RH  076%=      5-min Rain = 0
KAM3 140859Z 04006KT 18/14 A3025 RMK A01 T01820139  RH  075%=      5-min Rain = 0
KAM3 140900Z 04005KT 18/14 A3025 RMK A01 T01830138  RH  075%=      5-min Rain = 0
KAM3 140901Z 03006KT 18/14 A3025 RMK A01 T01840138  RH  075%=      5-min Rain = 0
KAM3 140902Z 04007KT 18/14 A3026 RMK A01 T01840138  RH  074%=      5-min Rain = 0
KAM3 140903Z 04007KT 19/14 A3026 RMK A01 T01850137  RH  074%=      5-min Rain = 0
KAM3 140904Z 04006KT 19/14 A3025 RMK A01 T01860139  RH  074%=      5-min Rain = 0
KAM3 140905Z 04006KT 19/14 A3025 RMK A01 T01850139  RH  074%=      5-min Rain = 0
KAM3 140906Z 04006KT 19/14 A3025 RMK A01 T01860138  RH  074%=      5-min Rain = 0
KAM3 140907Z 03006KT 19/14 A3025 RMK A01 T01850139  RH  074%=      5-min Rain = 0
KAM3 140908Z 04006KT 19/14 A3025 RMK A01 T01850140  RH  075%=      5-min Rain = 0
KAM3 140909Z 03006KT 19/14 A3025 RMK A01 T01850140  RH  075%=      5-min Rain = 0
KAM3 140910Z 03007KT 19/14 A3025 RMK A01 T01850139  RH  074%=      5-min Rain = 0
KAM3 140911Z 04006KT 19/14 A3025 RMK A01 T01860139  RH  074%=      5-min Rain = 0
KAM3 140912Z 04006KT 19/14 A3025 RMK A01 T01860139  RH  074%=      5-min Rain = 0
KAM3 140913Z 04006KT 19/14 A3025 RMK A01 T01860139  RH  074%=      5-min Rain = 0
KAM3 140914Z 04006KT 19/14 A3025 RMK A01 T01860138  RH  074%=      5-min Rain = 0
KAM3 140915Z 04006KT 19/14 A3025 RMK A01 T01870139  RH  074%=      5-min Rain = 0
KAM3 140916Z 03005KT 19/14 A3026 RMK A01 T01870138  RH  073%=      5-min Rain = 0
KAM3 140917Z 03005KT 19/14 A3026 RMK A01 T01870138  RH  073%=      5-min Rain = 0
KAM3 140918Z 03005KT 19/14 A3026 RMK A01 T01870138  RH  073%=      5-min Rain = 0
KAM3 140919Z 04005KT 19/14 A3026 RMK A01 T01880139  RH  073%=      5-min Rain = 0
KAM3 140920Z 04005KT 19/14 A3025 RMK A01 T01870139  RH  073%=      5-min Rain = 0
KAM3 140921Z 05004KT 19/14 A3025 RMK A01 T01870138  RH  073%=      5-min Rain = 0
KAM3 140922Z 05006KT 19/14 A3025 RMK A01 T01870138  RH  073%=      5-min Rain = 0
KAM3 140923Z 04005KT 19/14 A3025 RMK A01 T01870137  RH  073%=      5-min Rain = 0
KAM3 140924Z 03004KT 19/14 A3025 RMK A01 T01880137  RH  072%=      5-min Rain = 0
KAM3 140925Z 04005KT 19/14 A3026 RMK A01 T01880137  RH  072%=      5-min Rain = 0
KAM3 140926Z 02005KT 19/14 A3026 RMK A01 T01880137  RH  072%=      5-min Rain = 0
KAM3 140927Z 02005KT 19/14 A3026 RMK A01 T01880137  RH  072%=      5-min Rain = 0
KAM3 140928Z 02006KT 19/14 A3026 RMK A01 T01870137  RH  072%=      5-min Rain = 0
KAM3 140929Z 02005KT 19/14 A3026 RMK A01 T01880138  RH  072%=      5-min Rain = 0
KAM3 140930Z 02006KT 19/14 A3026 RMK A01 T01880137  RH  072%=      5-min Rain = 0
KAM3 140931Z 02005KT 19/14 A3026 RMK A01 T01880137  RH  072%=      5-min Rain = 0
KAM3 140932Z 02006KT 19/14 A3026 RMK A01 T01880138  RH  072%=      5-min Rain = 0
KAM3 140933Z 02006KT 19/14 A3026 RMK A01 T01880137  RH  072%=      5-min Rain = 0
KAM3 140934Z 02007KT 19/14 A3026 RMK A01 T01880138  RH  072%=      5-min Rain = 0
KAM3 140935Z 02005KT 19/14 A3026 RMK A01 T01880138  RH  073%=      5-min Rain = 0
KAM3 140936Z 02005KT 19/14 A3026 RMK A01 T01880138  RH  073%=      5-min Rain = 0
KAM3 140937Z 02005KT 19/14 A3026 RMK A01 T01880139  RH  073%=      5-min Rain = 0
KAM3 140938Z 01006KT 19/14 A3026 RMK A01 T01880138  RH  073%=      5-min Rain = 0
KAM3 140939Z 01007KT 19/14 A3027 RMK A01 T01880139  RH  073%=      5-min Rain = 0
KAM3 140940Z 01005KT 19/14 A3027 RMK A01 T01880139  RH  073%=      5-min Rain = 0
KAM3 140941Z 02003KT 19/14 A3026 RMK A01 T01880139  RH  073%=      5-min Rain = 0
KAM3 140942Z 03004KT 19/14 A3026 RMK A01 T01880139  RH  073%=      5-min Rain = 0
KAM3 140943Z 02005KT 19/14 A3026 RMK A01 T01880139  RH  073%=      5-min Rain = 0
KAM3 140944Z 01006KT 19/14 A3026 RMK A01 T01880140  RH  074%=      5-min Rain = 0
KAM3 140945Z 02007KT 19/14 A3026 RMK A01 T01870140  RH  074%=      5-min Rain = 0
KAM3 140946Z 02006KT 19/14 A3026 RMK A01 T01870139  RH  074%=      5-min Rain = 0
KAM3 140947Z 02004KT 19/14 A3026 RMK A01 T01870139  RH  074%=      5-min Rain = 0
KAM3 140948Z 02005KT 19/14 A3026 RMK A01 T01870140  RH  074%=      5-min Rain = 0
KAM3 140949Z 01007KT 19/14 A3026 RMK A01 T01870139  RH  074%=      5-min Rain = 0
KAM3 140950Z 01011KT 19/14 A3027 RMK A01 T01870138  RH  073%=      5-min Rain = 0
KAM3 140951Z 02009KT 19/14 A3027 RMK A01 T01870137  RH  073%=      5-min Rain = 0
KAM3 140952Z 03006KT 19/14 A3026 RMK A01 T01880137  RH  072%=      5-min Rain = 0
KAM3 140953Z 04006KT 19/14 A3026 RMK A01 T01880137  RH  072%=      5-min Rain = 0
KAM3 140954Z 03006KT 19/14 A3026 RMK A01 T01880137  RH  072%=      5-min Rain = 0
KAM3 140955Z 02008KT 19/14 A3026 RMK A01 T01880137  RH  072%=      5-min Rain = 0
KAM3 140956Z 02008KT 19/14 A3026 RMK A01 T01880138  RH  073%=      5-min Rain = 0
KAM3 140957Z 02007KT 19/14 A3026 RMK A01 T01880137  RH  072%=      5-min Rain = 0
KAM3 140958Z 03005KT 19/14 A3026 RMK A01 T01870137  RH  073%=      5-min Rain = 0
KAM3 140959Z 03005KT 19/14 A3026 RMK A01 T01880138  RH  073%=      5-min Rain = 0
KAM3 141000Z 01006KT 19/14 A3027 RMK A01 T01880138  RH  073%=      5-min Rain = 0
KAM3 141001Z 00007KT 19/14 A3027 RMK A01 T01870138  RH  073%=      5-min Rain = 0
KAM3 141002Z 00008KT 19/14 A3027 RMK A01 T01870138  RH  073%=      5-min Rain = 0
KAM3 141003Z 00007KT 19/14 A3027 RMK A01 T01870138  RH  073%=      5-min Rain = 0
KAM3 141004Z 01007KT 19/14 A3027 RMK A01 T01870138  RH  073%=      5-min Rain = 0
KAM3 141005Z 01007KT 19/14 A3027 RMK A01 T01870137  RH  073%=      5-min Rain = 0
KAM3 141006Z 01007KT 19/14 A3027 RMK A01 T01870136  RH  072%=      5-min Rain = 0
KAM3 141007Z 01010KT 19/14 A3028 RMK A01 T01870137  RH  072%=      5-min Rain = 0
KAM3 141008Z 01011KT 19/14 A3028 RMK A01 T01870136  RH  072%=      5-min Rain = 0
KAM3 141009Z 02009KT 19/14 A3027 RMK A01 T01870136  RH  072%=      5-min Rain = 0
KAM3 141010Z 01011KT 19/14 A3027 RMK A01 T01880136  RH  072%=      5-min Rain = 0
KAM3 141011Z 01010KT 19/14 A3028 RMK A01 T01880136  RH  072%=      5-min Rain = 0
KAM3 141012Z 02008KT 19/14 A3027 RMK A01 T01880137  RH  072%=      5-min Rain = 0
KAM3 141013Z 04006KT 19/14 A3027 RMK A01 T01880137  RH  072%=      5-min Rain = 0
KAM3 141014Z 05007KT 19/14 A3027 RMK A01 T01880136  RH  072%=      5-min Rain = 0
KAM3 141015Z 04008KT 19/14 A3027 RMK A01 T01880136  RH  072%=      5-min Rain = 0
KAM3 141016Z 03009KT 19/14 A3027 RMK A01 T01880136  RH  072%=      5-min Rain = 0
KAM3 141017Z 03011KT 19/14 A3028 RMK A01 T01880137  RH  072%=      5-min Rain = 0
KAM3 141018Z 04008KT 19/14 A3027 RMK A01 T01880138  RH  072%=      5-min Rain = 0
KAM3 141019Z 04007KT 19/14 A3027 RMK A01 T01880138  RH  073%=      5-min Rain = 0
KAM3 141020Z 03008KT 19/14 A3027 RMK A01 T01880138  RH  073%=      5-min Rain = 0
KAM3 141021Z 05008KT 19/14 A3027 RMK A01 T01880139  RH  073%=      5-min Rain = 0
KAM3 141022Z 04008KT 19/14 A3027 RMK A01 T01870138  RH  073%=      5-min Rain = 0
KAM3 141023Z 04008KT 19/14 A3027 RMK A01 T01870139  RH  073%=      5-min Rain = 0
KAM3 141024Z 04008KT 19/14 A3027 RMK A01 T01870138  RH  073%=      5-min Rain = 0
KAM3 141025Z 05007KT 19/14 A3027 RMK A01 T01870139  RH  074%=      5-min Rain = 0
KAM3 141026Z 05007KT 19/14 A3027 RMK A01 T01870139  RH  074%=      5-min Rain = 0
KAM3 141027Z 05006KT 19/14 A3027 RMK A01 T01870138  RH  073%=      5-min Rain = 0
KAM3 141028Z 04008KT 19/14 A3027 RMK A01 T01870138  RH  073%=      5-min Rain = 0
KAM3 141029Z 04006KT 19/14 A3027 RMK A01 T01870138  RH  073%=      5-min Rain = 0
KAM3 141030Z 05006KT 19/14 A3026 RMK A01 T01870138  RH  073%=      5-min Rain = 0
KAM3 141031Z 05005KT 19/14 A3027 RMK A01 T01870139  RH  074%=      5-min Rain = 0
KAM3 141032Z 02004KT 19/14 A3027 RMK A01 T01860140  RH  074%=      5-min Rain = 0
KAM3 141033Z 03004KT 19/14 A3027 RMK A01 T01860139  RH  074%=      5-min Rain = 0
KAM3 141034Z 03005KT 19/14 A3027 RMK A01 T01860139  RH  074%=      5-min Rain = 0
KAM3 141035Z 02004KT 19/14 A3027 RMK A01 T01860139  RH  074%=      5-min Rain = 0
KAM3 141036Z 03004KT 19/14 A3027 RMK A01 T01860139  RH  074%=      5-min Rain = 0
KAM3 141037Z 04003KT 19/14 A3027 RMK A01 T01860139  RH  074%=      5-min Rain = 0
KAM3 141038Z 04003KT 19/14 A3027 RMK A01 T01860140  RH  074%=      5-min Rain = 0
KAM3 141039Z 04002KT 19/14 A3027 RMK A01 T01860140  RH  075%=      5-min Rain = 0
KAM3 141040Z 01003KT 19/14 A3027 RMK A01 T01860142  RH  076%=      5-min Rain = 0
KAM3 141041Z 02003KT 19/14 A3027 RMK A01 T01850141  RH  075%=      5-min Rain = 0
KAM3 141042Z 02004KT 19/14 A3027 RMK A01 T01850140  RH  075%=      5-min Rain = 0
KAM3 141043Z 00004KT 19/14 A3027 RMK A01 T01850140  RH  075%=      5-min Rain = 0
KAM3 141044Z 01005KT 19/14 A3027 RMK A01 T01850141  RH  076%=      5-min Rain = 0
KAM3 141045Z 02006KT 19/14 A3027 RMK A01 T01850142  RH  076%=      5-min Rain = 0
KAM3 141046Z 02006KT 18/14 A3027 RMK A01 T01840141  RH  076%=      5-min Rain = 0
KAM3 141047Z 03005KT 18/14 A3027 RMK A01 T01840141  RH  076%=      5-min Rain = 0
KAM3 141048Z 04005KT 18/14 A3027 RMK A01 T01830142  RH  077%=      5-min Rain = 0
KAM3 141049Z 04005KT 18/14 A3027 RMK A01 T01830142  RH  077%=      5-min Rain = 0
KAM3 141050Z 05005KT 18/14 A3026 RMK A01 T01820142  RH  077%=      5-min Rain = 0
KAM3 141051Z 05005KT 18/14 A3026 RMK A01 T01820142  RH  077%=      5-min Rain = 0
KAM3 141052Z 05005KT 18/14 A3026 RMK A01 T01820142  RH  077%=      5-min Rain = 0
KAM3 141053Z 04004KT 18/14 A3026 RMK A01 T01820142  RH  078%=      5-min Rain = 0
KAM3 141054Z 04004KT 18/14 A3027 RMK A01 T01810142  RH  078%=      5-min Rain = 0
KAM3 141055Z 03003KT 18/14 A3027 RMK A01 T01810143  RH  078%=      5-min Rain = 0
KAM3 141056Z 04003KT 18/14 A3027 RMK A01 T01800143  RH  079%=      5-min Rain = 0
KAM3 141057Z 04004KT 18/14 A3027 RMK A01 T01800144  RH  079%=      5-min Rain = 0
KAM3 141058Z 05003KT 18/14 A3027 RMK A01 T01800143  RH  079%=      5-min Rain = 0
KAM3 141059Z 06003KT 18/14 A3027 RMK A01 T01800143  RH  079%=      5-min Rain = 0
KAM3 141100Z 06003KT 18/14 A3027 RMK A01 T01800144  RH  080%=      5-min Rain = 0
KAM3 141101Z 07003KT 18/14 A3027 RMK A01 T01800144  RH  080%=      5-min Rain = 0
KAM3 141102Z 08003KT 18/14 A3027 RMK A01 T01790144  RH  080%=      5-min Rain = 0
KAM3 141103Z 08003KT 18/14 A3027 RMK A01 T01790144  RH  080%=      5-min Rain = 0
KAM3 141104Z 08003KT 18/15 A3026 RMK A01 T01790145  RH  080%=      5-min Rain = 0
KAM3 141105Z 07003KT 18/15 A3026 RMK A01 T01790145  RH  080%=      5-min Rain = 0
KAM3 141106Z 07002KT 18/15 A3026 RMK A01 T01790145  RH  080%=      5-min Rain = 0
KAM3 141107Z 06002KT 18/15 A3027 RMK A01 T01790145  RH  080%=      5-min Rain = 0
KAM3 141108Z 05002KT 18/15 A3027 RMK A01 T01790145  RH  080%=      5-min Rain = 0
KAM3 141109Z 03001KT 18/15 A3027 RMK A01 T01790146  RH  081%=      5-min Rain = 0
KAM3 141110Z 02001KT 18/15 A3027 RMK A01 T01790146  RH  081%=      5-min Rain = 0
KAM3 141111Z 04002KT 18/15 A3027 RMK A01 T01780146  RH  081%=      5-min Rain = 0
KAM3 141112Z 04002KT 18/15 A3027 RMK A01 T01790147  RH  081%=      5-min Rain = 0
KAM3 141113Z 04002KT 18/15 A3027 RMK A01 T01780147  RH  082%=      5-min Rain = 0
KAM3 141114Z 04003KT 18/15 A3027 RMK A01 T01790149  RH  083%=      5-min Rain = 0
KAM3 141115Z 03003KT 18/15 A3027 RMK A01 T01780146  RH  082%=      5-min Rain = 0
KAM3 141116Z 02003KT 18/15 A3027 RMK A01 T01790147  RH  082%=      5-min Rain = 0
KAM3 141117Z 00004KT 18/15 A3027 RMK A01 T01790148  RH  082%=      5-min Rain = 0
KAM3 141118Z 03003KT 18/15 A3027 RMK A01 T01790149  RH  083%=      5-min Rain = 0
KAM3 141119Z 04003KT 18/15 A3027 RMK A01 T01780148  RH  082%=      5-min Rain = 0
KAM3 141120Z 01004KT 18/15 A3027 RMK A01 T01780148  RH  082%=      5-min Rain = 0
KAM3 141121Z 36003KT 18/15 A3027 RMK A01 T01780150  RH  083%=      5-min Rain = 0
KAM3 141122Z 35004KT 18/15 A3028 RMK A01 T01780151  RH  084%=      5-min Rain = 0
KAM3 141123Z 00003KT 18/15 A3028 RMK A01 T01780151  RH  084%=      5-min Rain = 0
KAM3 141124Z 02003KT 18/15 A3028 RMK A01 T01770151  RH  085%=      5-min Rain = 0
KAM3 141125Z 01003KT 18/15 A3028 RMK A01 T01770151  RH  084%=      5-min Rain = 0
KAM3 141126Z 34003KT 18/15 A3028 RMK A01 T01770150  RH  084%=      5-min Rain = 0
KAM3 141127Z 34004KT 18/15 A3028 RMK A01 T01770150  RH  084%=      5-min Rain = 0
KAM3 141128Z 34004KT 18/15 A3028 RMK A01 T01770151  RH  085%=      5-min Rain = 0
KAM3 141129Z 34004KT 18/15 A3028 RMK A01 T01770151  RH  085%=      5-min Rain = 0
KAM3 141130Z 33004KT 18/15 A3028 RMK A01 T01770152  RH  085%=      5-min Rain = 0
KAM3 141131Z 33004KT 18/15 A3028 RMK A01 T01770152  RH  085%=      5-min Rain = 0
KAM3 141132Z 32005KT 18/15 A3028 RMK A01 T01760152  RH  085%=      5-min Rain = 0
KAM3 141133Z 32005KT 18/15 A3028 RMK A01 T01760152  RH  086%=      5-min Rain = 0
KAM3 141134Z 32005KT 18/15 A3028 RMK A01 T01760152  RH  086%=      5-min Rain = 0
KAM3 141135Z 32005KT 18/15 A3028 RMK A01 T01750153  RH  087%=      5-min Rain = 0
KAM3 141136Z 31004KT 18/15 A3028 RMK A01 T01750153  RH  087%=      5-min Rain = 0
KAM3 141137Z 31004KT 18/15 A3028 RMK A01 T01750154  RH  087%=      5-min Rain = 0
KAM3 141138Z 30005KT 18/16 A3028 RMK A01 T01750155  RH  088%=      5-min Rain = 0
KAM3 141139Z 30005KT 18/16 A3028 RMK A01 T01750155  RH  088%=      5-min Rain = 0
KAM3 141140Z 31004KT 18/16 A3028 RMK A01 T01750155  RH  088%=      5-min Rain = 0
KAM3 141141Z 32004KT 18/16 A3027 RMK A01 T01750155  RH  088%=      5-min Rain = 0
KAM3 141142Z 33004KT 18/16 A3027 RMK A01 T01750155  RH  088%=      5-min Rain = 0
KAM3 141143Z 34004KT 18/16 A3027 RMK A01 T01750156  RH  088%=      5-min Rain = 0
KAM3 141144Z 35004KT 18/16 A3027 RMK A01 T01750155  RH  088%=      5-min Rain = 0
KAM3 141145Z 35006KT 18/15 A3027 RMK A01 T01750152  RH  087%=      5-min Rain = 0
KAM3 141146Z 35006KT 18/15 A3027 RMK A01 T01750147  RH  084%=      5-min Rain = 0
KAM3 141147Z 34006KT 18/15 A3027 RMK A01 T01770147  RH  082%=      5-min Rain = 0
KAM3 141148Z 35007KT 18/15 A3026 RMK A01 T01790147  RH  082%=      5-min Rain = 0
KAM3 141149Z 36007KT 18/15 A3026 RMK A01 T01790146  RH  081%=      5-min Rain = 0
KAM3 141150Z 36009KT 18/14 A3026 RMK A01 T01800143  RH  079%=      5-min Rain = 0
KAM3 141151Z 00008KT 18/14 A3026 RMK A01 T01830141  RH  077%=      5-min Rain = 0
KAM3 141152Z 00009KT 19/14 A3026 RMK A01 T01850142  RH  076%=      5-min Rain = 0
KAM3 141153Z 36009KT 19/14 A3026 RMK A01 T01850141  RH  075%=      5-min Rain = 0
KAM3 141154Z 01008KT 19/14 A3026 RMK A01 T01860142  RH  075%=      5-min Rain = 0
KAM3 141155Z 01009KT 19/14 A3026 RMK A01 T01860141  RH  075%=      5-min Rain = 0
KAM3 141156Z 01009KT 19/14 A3026 RMK A01 T01870141  RH  075%=      5-min Rain = 0
KAM3 141157Z 00008KT 19/14 A3026 RMK A01 T01870142  RH  075%=      5-min Rain = 0
KAM3 141158Z 00007KT 19/14 A3026 RMK A01 T01870142  RH  075%=      5-min Rain = 0
KAM3 141159Z 01007KT 19/14 A3026 RMK A01 T01870142  RH  075%=      5-min Rain = 0
KAM3 141200Z 00007KT 19/14 A3026 RMK A01 T01870143  RH  076%=      5-min Rain = 0
KAM3 141201Z 36007KT 19/14 A3026 RMK A01 T01860143  RH  076%=      5-min Rain = 0
KAM3 141202Z 35008KT 19/14 A3026 RMK A01 T01860143  RH  076%=      5-min Rain = 0
KAM3 141203Z 00009KT 19/14 A3026 RMK A01 T01860142  RH  076%=      5-min Rain = 0
KAM3 141204Z 36008KT 19/14 A3026 RMK A01 T01870143  RH  075%=      5-min Rain = 0
KAM3 141205Z 35008KT 19/14 A3026 RMK A01 T01880144  RH  075%=      5-min Rain = 0
KAM3 141206Z 35008KT 19/14 A3026 RMK A01 T01880144  RH  075%=      5-min Rain = 0
KAM3 141207Z 34008KT 19/15 A3026 RMK A01 T01890145  RH  075%=      5-min Rain = 0
KAM3 141208Z 35007KT 19/15 A3026 RMK A01 T01900145  RH  075%=      5-min Rain = 0
KAM3 141209Z 34007KT 19/15 A3026 RMK A01 T01900145  RH  075%=      5-min Rain = 0
KAM3 141210Z 33007KT 19/15 A3026 RMK A01 T01910146  RH  075%=      5-min Rain = 0
KAM3 141211Z 32006KT 19/15 A3026 RMK A01 T01920146  RH  075%=      5-min Rain = 0
KAM3 141212Z 33007KT 19/15 A3026 RMK A01 T01920147  RH  075%=      5-min Rain = 0
KAM3 141213Z 32005KT 19/15 A3026 RMK A01 T01920146  RH  075%=      5-min Rain = 0
KAM3 141214Z 30005KT 19/15 A3027 RMK A01 T01930147  RH  075%=      5-min Rain = 0
KAM3 141215Z 31005KT 19/15 A3027 RMK A01 T01930148  RH  075%=      5-min Rain = 0
KAM3 141216Z 31004KT 19/15 A3027 RMK A01 T01930149  RH  076%=      5-min Rain = 0
KAM3 141217Z 30005KT 19/15 A3027 RMK A01 T01920148  RH  076%=      5-min Rain = 0
KAM3 141218Z 30005KT 19/15 A3027 RMK A01 T01920150  RH  076%=      5-min Rain = 0
KAM3 141219Z 31005KT 19/15 A3027 RMK A01 T01910151  RH  077%=      5-min Rain = 0
KAM3 141220Z 32006KT 19/15 A3027 RMK A01 T01900151  RH  078%=      5-min Rain = 0
KAM3 141221Z 30006KT 19/15 A3027 RMK A01 T01900150  RH  078%=      5-min Rain = 0
KAM3 141222Z 31006KT 19/15 A3028 RMK A01 T01890151  RH  079%=      5-min Rain = 0
KAM3 141223Z 30006KT 19/15 A3028 RMK A01 T01890152  RH  079%=      5-min Rain = 0
KAM3 141224Z 29007KT 19/15 A3028 RMK A01 T01880153  RH  080%=      5-min Rain = 0
KAM3 141225Z 29007KT 19/15 A3028 RMK A01 T01880154  RH  081%=      5-min Rain = 0
KAM3 141226Z 28007KT 19/15 A3028 RMK A01 T01870154  RH  081%=      5-min Rain = 0
KAM3 141227Z 28006KT 19/15 A3028 RMK A01 T01870154  RH  081%=      5-min Rain = 0
KAM3 141228Z 29005KT 19/15 A3028 RMK A01 T01870154  RH  081%=      5-min Rain = 0
KAM3 141229Z 28005KT 19/16 A3028 RMK A01 T01860156  RH  083%=      5-min Rain = 0
KAM3 141230Z 27005KT 19/16 A3028 RMK A01 T01860156  RH  083%=      5-min Rain = 0
KAM3 141231Z 27004KT 19/16 A3028 RMK A01 T01850157  RH  084%=      5-min Rain = 0
KAM3 141232Z 26006KT 18/16 A3028 RMK A01 T01840159  RH  085%=      5-min Rain = 0
KAM3 141233Z 24007KT 18/16 A3028 RMK A01 T01830160  RH  087%=      5-min Rain = 0
KAM3 141234Z 24008KT 18/16 A3028 RMK A01 T01820160  RH  087%=      5-min Rain = 0
KAM3 141235Z 24008KT 18/16 A3028 RMK A01 T01820161  RH  088%=      5-min Rain = 0
KAM3 141236Z 24008KT 18/16 A3028 RMK A01 T01810164  RH  089%=      5-min Rain = 0
KAM3 141237Z 23010KT 18/17 A3028 RMK A01 T01800166  RH  092%=      5-min Rain = 0
KAM3 141238Z 23011KT 18/16 A3028 RMK A01 T01790164  RH  091%=      5-min Rain = 0
KAM3 141239Z 24009KT 18/16 A3028 RMK A01 T01780163  RH  090%=      5-min Rain = 0
KAM3 141240Z 24008KT 18/16 A3027 RMK A01 T01780162  RH  091%=      5-min Rain = 0
KAM3 141241Z 24008KT 18/16 A3027 RMK A01 T01770161  RH  090%=      5-min Rain = 0
KAM3 141242Z 25007KT 18/16 A3027 RMK A01 T01770162  RH  091%=      5-min Rain = 0
KAM3 141243Z 24007KT 18/16 A3027 RMK A01 T01770162  RH  090%=      5-min Rain = 0
KAM3 141244Z 26007KT 18/16 A3027 RMK A01 T01770160  RH  090%=      5-min Rain = 0
KAM3 141245Z 26007KT 18/16 A3027 RMK A01 T01780160  RH  089%=      5-min Rain = 0
KAM3 141246Z 27007KT 18/16 A3027 RMK A01 T01780160  RH  089%=      5-min Rain = 0
KAM3 141247Z 26007KT 18/16 A3027 RMK A01 T01790160  RH  089%=      5-min Rain = 0
KAM3 141248Z 26007KT 18/16 A3027 RMK A01 T01790160  RH  089%=      5-min Rain = 0
KAM3 141249Z 26007KT 18/16 A3027 RMK A01 T01790161  RH  089%=      5-min Rain = 0
KAM3 141250Z 26006KT 18/16 A3027 RMK A01 T01790160  RH  089%=      5-min Rain = 0
KAM3 141251Z 25006KT 18/16 A3027 RMK A01 T01800161  RH  089%=      5-min Rain = 0
KAM3 141252Z 24006KT 18/16 A3026 RMK A01 T01800162  RH  089%=      5-min Rain = 0
KAM3 141253Z 24006KT 18/16 A3026 RMK A01 T01800161  RH  089%=      5-min Rain = 0
KAM3 141254Z 23005KT 18/16 A3026 RMK A01 T01800164  RH  091%=      5-min Rain = 0
KAM3 141255Z 21005KT 18/16 A3026 RMK A01 T01800162  RH  089%=      5-min Rain = 0
KAM3 141256Z 20004KT 18/16 A3026 RMK A01 T01800158  RH  087%=      5-min Rain = 0
KAM3 141257Z 19005KT 18/16 A3025 RMK A01 T01800158  RH  087%=      5-min Rain = 0
KAM3 141258Z 18005KT 18/16 A3025 RMK A01 T01810157  RH  086%=      5-min Rain = 0
KAM3 141259Z 17005KT 18/16 A3025 RMK A01 T01810159  RH  087%=      5-min Rain = 0
KAM3 141300Z 16006KT 18/16 A3024 RMK A01 T01810162  RH  088%=      5-min Rain = 0
KAM3 141301Z 15006KT 18/16 A3024 RMK A01 T01810163  RH  089%=      5-min Rain = 0
KAM3 141302Z 15007KT 18/17 A3024 RMK A01 T01810165  RH  091%=      5-min Rain = 0
KAM3 141303Z 14009KT 18/17 A3023 RMK A01 T01800169  RH  093%=      5-min Rain = 0
KAM3 141304Z 14010KT 18/17 A3023 RMK A01 T01790172  RH  095%=      5-min Rain = 0
KAM3 141305Z 13011KT 18/17 A3023 RMK A01 T01790172  RH  096%=      5-min Rain = 0
KAM3 141306Z 12009KT 18/18 A3023 RMK A01 T01780175  RH  098%=      5-min Rain = 0
KAM3 141307Z 13008KT 18/18 A3023 RMK A01 T01780175  RH  098%=      5-min Rain = 0
KAM3 141308Z 13008KT 18/17 A3023 RMK A01 T01780174  RH  097%=      5-min Rain = 0
KAM3 141309Z 13008KT 18/17 A3023 RMK A01 T01780174  RH  098%=      5-min Rain = 0
KAM3 141310Z 14007KT 18/17 A3023 RMK A01 T01780174  RH  098%=      5-min Rain = 0
KAM3 141311Z 15005KT 18/17 A3023 RMK A01 T01780174  RH  098%=      5-min Rain = 0
KAM3 141312Z 16005KT 18/17 A3024 RMK A01 T01780174  RH  097%=      5-min Rain = 0
KAM3 141313Z 19005KT 18/18 A3024 RMK A01 T01790176  RH  099%=      5-min Rain = 0
KAM3 141314Z 23006KT 18/18 A3024 RMK A01 T01790179  RH  100%=      5-min Rain = 0
KAM3 141315Z 24008KT 18/18 A3025 RMK A01 T01790179  RH  100%=      5-min Rain = 0
KAM3 141316Z 26009KT 18/18 A3025 RMK A01 T01790179  RH  100%=      5-min Rain = 0
KAM3 141317Z 25009KT 18/18 A3025 RMK A01 T01780178  RH  100%=      5-min Rain = 0
KAM3 141318Z 22006KT 18/18 A3025 RMK A01 T01780178  RH  100%=      5-min Rain = 0
KAM3 141319Z 19006KT 18/18 A3024 RMK A01 T01790179  RH  100%=      5-min Rain = 0
KAM3 141320Z 17006KT 18/18 A3024 RMK A01 T01790179  RH  100%=      5-min Rain = 0
KAM3 141321Z 16006KT 18/18 A3024 RMK A01 T01790179  RH  100%=      5-min Rain = 0
KAM3 141322Z 15006KT 18/18 A3023 RMK A01 T01790179  RH  100%=      5-min Rain = 0
KAM3 141323Z 15005KT 18/18 A3023 RMK A01 T01790179  RH  100%=      5-min Rain = 0
KAM3 141324Z 15007KT 18/18 A3023 RMK A01 T01800180  RH  100%=      5-min Rain = 0
KAM3 141325Z 15006KT 18/18 A3022 RMK A01 T01790179  RH  100%=      5-min Rain = 0
KAM3 141326Z 15007KT 18/18 A3022 RMK A01 T01790180  RH  100%=      5-min Rain = 0
KAM3 141327Z 15007KT 18/18 A3022 RMK A01 T01800180  RH  100%=      5-min Rain = 0
KAM3 141328Z 15008KT 18/18 A3022 RMK A01 T01790180  RH  100%=      5-min Rain = 0
KAM3 141329Z 16008KT 18/18 A3022 RMK A01 T01790179  RH  100%=      5-min Rain = 0
KAM3 141330Z 16008KT 18/18 A3022 RMK A01 T01790179  RH  100%=      5-min Rain = 0
KAM3 141331Z 16008KT 18/18 A3022 RMK A01 T01790179  RH  100%=      5-min Rain = 0
KAM3 141332Z 16008KT 18/18 A3022 RMK A01 T01780178  RH  100%=      5-min Rain = 0
KAM3 141333Z 16007KT 18/18 A3022 RMK A01 T01780178  RH  100%=      5-min Rain = 0
KAM3 141334Z 16007KT 18/18 A3022 RMK A01 T01780177  RH  099%=      5-min Rain = 0
KAM3 141335Z 17006KT 18/18 A3022 RMK A01 T01780178  RH  100%=      5-min Rain = 0
KAM3 141336Z 17006KT 18/18 A3022 RMK A01 T01780178  RH  100%=      5-min Rain = 0
KAM3 141337Z 17006KT 18/18 A3022 RMK A01 T01780178  RH  100%=      5-min Rain = 0
KAM3 141338Z 17007KT 18/18 A3022 RMK A01 T01780179  RH  100%=      5-min Rain = 0
KAM3 141339Z 18008KT 18/18 A3022 RMK A01 T01780179  RH  100%=      5-min Rain = 0
KAM3 141340Z 18008KT 18/18 A3022 RMK A01 T01780179  RH  100%=      5-min Rain = 0
KAM3 141341Z 18009KT 18/18 A3022 RMK A01 T01790179  RH  100%=      5-min Rain = 0
KAM3 141342Z 18010KT 18/18 A3022 RMK A01 T01790179  RH  100%=      5-min Rain = 0
KAM3 141343Z 18010KT 18/18 A3021 RMK A01 T01790179  RH  100%=      5-min Rain = 0
KAM3 141344Z 18008KT 18/18 A3021 RMK A01 T01790176  RH  098%=      5-min Rain = 0
KAM3 141345Z 18008KT 18/18 A3021 RMK A01 T01800176  RH  097%=      5-min Rain = 0
KAM3 141346Z 18006KT 18/17 A3022 RMK A01 T01800172  RH  095%=      5-min Rain = 0
KAM3 141347Z 19005KT 18/17 A3022 RMK A01 T01810170  RH  093%=      5-min Rain = 0
KAM3 141348Z 21005KT 18/17 A3022 RMK A01 T01820173  RH  094%=      5-min Rain = 0
KAM3 141349Z 22004KT 18/17 A3022 RMK A01 T01830172  RH  094%=      5-min Rain = 0
KAM3 141350Z 23005KT 18/17 A3022 RMK A01 T01830173  RH  094%=      5-min Rain = 0
KAM3 141351Z 23005KT 18/17 A3022 RMK A01 T01840171  RH  092%=      5-min Rain = 0
KAM3 141352Z 23005KT 18/17 A3022 RMK A01 T01840171  RH  092%=      5-min Rain = 0
KAM3 141353Z 22005KT 19/17 A3022 RMK A01 T01850171  RH  092%=      5-min Rain = 0
KAM3 141354Z 20005KT 19/17 A3022 RMK A01 T01850172  RH  092%=      5-min Rain = 0
KAM3 141355Z 19006KT 19/18 A3022 RMK A01 T01860175  RH  094%=      5-min Rain = 0
KAM3 141356Z 19007KT 19/17 A3022 RMK A01 T01860173  RH  092%=      5-min Rain = 0
KAM3 141357Z 19007KT 19/17 A3022 RMK A01 T01860172  RH  092%=      5-min Rain = 0
KAM3 141358Z 19007KT 19/17 A3022 RMK A01 T01870169  RH  089%=      5-min Rain = 0
KAM3 141359Z 19007KT 19/16 A3022 RMK A01 T01890164  RH  085%=      5-min Rain = 0
KAM3 141400Z 20006KT 19/16 A3022 RMK A01 T01900164  RH  085%=      5-min Rain = 0
KAM3 141401Z 20007KT 19/16 A3022 RMK A01 T01910163  RH  084%=      5-min Rain = 0
KAM3 141402Z 21006KT 19/16 A3023 RMK A01 T01920163  RH  083%=      5-min Rain = 0
KAM3 141403Z 23006KT 19/17 A3023 RMK A01 T01930167  RH  085%=      5-min Rain = 0
KAM3 141404Z 22008KT 19/17 A3022 RMK A01 T01940166  RH  084%=      5-min Rain = 0
KAM3 141405Z 21007KT 19/16 A3022 RMK A01 T01940164  RH  083%=      5-min Rain = 0
KAM3 141406Z 20007KT 19/16 A3022 RMK A01 T01940164  RH  083%=      5-min Rain = 0
KAM3 141407Z 20006KT 19/16 A3022 RMK A01 T01940163  RH  082%=      5-min Rain = 0
KAM3 141408Z 20006KT 19/16 A3022 RMK A01 T01940164  RH  083%=      5-min Rain = 0
KAM3 141409Z 20007KT 19/16 A3022 RMK A01 T01940163  RH  082%=      5-min Rain = 0
KAM3 141410Z 21007KT 20/16 A3022 RMK A01 T01950163  RH  082%=      5-min Rain = 0
KAM3 141411Z 21006KT 20/16 A3023 RMK A01 T01960164  RH  082%=      5-min Rain = 0
KAM3 141412Z 22006KT 20/17 A3023 RMK A01 T01960165  RH  082%=      5-min Rain = 0
KAM3 141413Z 22007KT 20/16 A3023 RMK A01 T01970164  RH  082%=      5-min Rain = 0
KAM3 141414Z 22007KT 20/17 A3023 RMK A01 T01970165  RH  081%=      5-min Rain = 0
KAM3 141415Z 21006KT 20/16 A3023 RMK A01 T01980164  RH  081%=      5-min Rain = 0
KAM3 141416Z 21007KT 20/17 A3023 RMK A01 T01980165  RH  081%=      5-min Rain = 0
KAM3 141417Z 20007KT 20/16 A3023 RMK A01 T01990164  RH  080%=      5-min Rain = 0
KAM3 141418Z 20007KT 20/16 A3023 RMK A01 T01990163  RH  080%=      5-min Rain = 0
KAM3 141419Z 20006KT 20/16 A3023 RMK A01 T02000162  RH  079%=      5-min Rain = 0
KAM3 141420Z 21006KT 20/16 A3023 RMK A01 T02010164  RH  079%=      5-min Rain = 0
KAM3 141421Z 22006KT 20/16 A3023 RMK A01 T02010163  RH  079%=      5-min Rain = 0
KAM3 141422Z 23005KT 20/16 A3023 RMK A01 T02020162  RH  078%=      5-min Rain = 0
KAM3 141423Z 25004KT 20/16 A3024 RMK A01 T02040163  RH  077%=      5-min Rain = 0
KAM3 141424Z 28003KT 20/16 A3024 RMK A01 T02040161  RH  076%=      5-min Rain = 0
KAM3 141425Z 32006KT 21/16 A3025 RMK A01 T02050163  RH  077%=      5-min Rain = 0
KAM3 141426Z 34011KT 21/16 A3025 RMK A01 T02070164  RH  076%=      5-min Rain = 0
KAM3 141427Z 35011KT 21/16 A3025 RMK A01 T02080164  RH  076%=      5-min Rain = 0
KAM3 141428Z 35012KT 21/16 A3025 RMK A01 T02080164  RH  076%=      5-min Rain = 0
KAM3 141429Z 35009KT 21/16 A3025 RMK A01 T02050162  RH  076%=      5-min Rain = 0
KAM3 141430Z 32003KT 20/16 A3025 RMK A01 T02030163  RH  078%=      5-min Rain = 0
KAM3 141431Z 27002KT 20/16 A3024 RMK A01 T02020162  RH  078%=      5-min Rain = 0
KAM3 141432Z 26003KT 20/16 A3024 RMK A01 T02010160  RH  077%=      5-min Rain = 0
KAM3 141433Z 25003KT 20/16 A3024 RMK A01 T02010162  RH  078%=      5-min Rain = 0
KAM3 141434Z 27003KT 20/16 A3024 RMK A01 T02010162  RH  078%=      5-min Rain = 0
KAM3 141435Z 29004KT 20/16 A3024 RMK A01 T02020163  RH  078%=      5-min Rain = 0
KAM3 141436Z 32006KT 20/16 A3024 RMK A01 T02020163  RH  078%=      5-min Rain = 0
KAM3 141437Z 33009KT 20/17 A3025 RMK A01 T02030166  RH  079%=      5-min Rain = 0
KAM3 141438Z 34009KT 20/17 A3025 RMK A01 T02040167  RH  079%=      5-min Rain = 0
KAM3 141439Z 34011KT 21/17 A3025 RMK A01 T02050166  RH  078%=      5-min Rain = 0
KAM3 141440Z 33010KT 21/16 A3025 RMK A01 T02050163  RH  077%=      5-min Rain = 0
KAM3 141441Z 33007KT 20/16 A3025 RMK A01 T02040160  RH  076%=      5-min Rain = 0
KAM3 141442Z 33004KT 20/16 A3025 RMK A01 T02040162  RH  076%=      5-min Rain = 0
KAM3 141443Z 31004KT 20/16 A3025 RMK A01 T02040161  RH  076%=      5-min Rain = 0
KAM3 141444Z 31006KT 21/16 A3025 RMK A01 T02050160  RH  075%=      5-min Rain = 0
KAM3 141445Z 31006KT 21/16 A3025 RMK A01 T02060159  RH  075%=      5-min Rain = 0
KAM3 141446Z 32007KT 21/16 A3025 RMK A01 T02060161  RH  075%=      5-min Rain = 0
KAM3 141447Z 32008KT 21/16 A3025 RMK A01 T02070158  RH  074%=      5-min Rain = 0
KAM3 141448Z 32008KT 21/16 A3025 RMK A01 T02080157  RH  072%=      5-min Rain = 0
KAM3 141449Z 32009KT 21/16 A3025 RMK A01 T02090156  RH  071%=      5-min Rain = 0
KAM3 141450Z 33009KT 21/15 A3025 RMK A01 T02100154  RH  070%=      5-min Rain = 0
KAM3 141451Z 33010KT 21/16 A3025 RMK A01 T02110155  RH  070%=      5-min Rain = 0
KAM3 141452Z 32009KT 21/15 A3025 RMK A01 T02120154  RH  070%=      5-min Rain = 0
KAM3 141453Z 33009KT 21/16 A3025 RMK A01 T02120155  RH  070%=      5-min Rain = 0
KAM3 141454Z 33008KT 21/16 A3025 RMK A01 T02120157  RH  071%=      5-min Rain = 0
KAM3 141455Z 32006KT 21/16 A3025 RMK A01 T02120155  RH  070%=      5-min Rain = 0
KAM3 141456Z 32007KT 21/16 A3025 RMK A01 T02130159  RH  071%=      5-min Rain = 0
KAM3 141457Z 32007KT 21/16 A3025 RMK A01 T02140158  RH  071%=      5-min Rain = 0
KAM3 141458Z 32005KT 22/16 A3025 RMK A01 T02150156  RH  069%=      5-min Rain = 0
KAM3 141459Z 31004KT 22/16 A3025 RMK A01 T02150156  RH  069%=      5-min Rain = 0
KAM3 141500Z 30005KT 22/16 A3025 RMK A01 T02160158  RH  069%=      5-min Rain = 0
KAM3 141501Z 30006KT 22/16 A3025 RMK A01 T02170158  RH  069%=      5-min Rain = 0
KAM3 141502Z 30006KT 22/16 A3025 RMK A01 T02180157  RH  068%=      5-min Rain = 0
KAM3 141503Z 31007KT 22/16 A3025 RMK A01 T02190156  RH  068%=      5-min Rain = 0
KAM3 141504Z 31005KT 22/16 A3026 RMK A01 T02190156  RH  067%=      5-min Rain = 0
KAM3 141505Z 30008KT 22/16 A3026 RMK A01 T02210156  RH  067%=      5-min Rain = 0
KAM3 141506Z 30007KT 22/15 A3026 RMK A01 T02220153  RH  065%=      5-min Rain = 0
KAM3 141507Z 30005KT 22/16 A3026 RMK A01 T02240156  RH  065%=      5-min Rain = 0
KAM3 141508Z 30005KT 23/15 A3026 RMK A01 T02250154  RH  064%=      5-min Rain = 0
KAM3 141509Z 32005KT 23/15 A3026 RMK A01 T02250154  RH  064%=      5-min Rain = 0
KAM3 141510Z 32005KT 23/16 A3026 RMK A01 T02260156  RH  065%=      5-min Rain = 0
KAM3 141511Z 32004KT 23/15 A3026 RMK A01 T02260154  RH  064%=      5-min Rain = 0
KAM3 141512Z 33004KT 23/16 A3026 RMK A01 T02270158  RH  065%=      5-min Rain = 0
KAM3 141513Z 34004KT 23/16 A3026 RMK A01 T02270159  RH  065%=      5-min Rain = 0
KAM3 141514Z 34006KT 23/16 A3026 RMK A01 T02280155  RH  064%=      5-min Rain = 0
KAM3 141515Z 34006KT 23/16 A3026 RMK A01 T02280155  RH  064%=      5-min Rain = 0
KAM3 141516Z 35006KT 23/16 A3027 RMK A01 T02280156  RH  064%=      5-min Rain = 0
KAM3 141517Z 01012KT 23/16 A3028 RMK A01 T02290156  RH  063%=      5-min Rain = 0
KAM3 141518Z 02015KT 23/16 A3029 RMK A01 T02290157  RH  063%=      5-min Rain = 0
KAM3 141519Z 03015KT 23/16 A3029 RMK A01 T02300160  RH  064%=      5-min Rain = 0
KAM3 141520Z 02015G22KT 23/16 A3029 RMK A01 T02310159  RH  064%=      5-min Rain = 0
KAM3 141521Z 01013KT 23/15 A3029 RMK A01 T02330151  RH  060%=      5-min Rain = 0
KAM3 141522Z 01011KT 24/14 A3028 RMK A01 T02380142  RH  055%=      5-min Rain = 0
KAM3 141523Z 01014KT 24/14 A3029 RMK A01 T02420142  RH  053%=      5-min Rain = 0
KAM3 141524Z 01019KT 25/14 A3029 RMK A01 T02450143  RH  053%=      5-min Rain = 0
KAM3 141525Z 02019G25KT 25/15 A303 RMK A01 T02470146  RH  054%=      5-min Rain = 0
KAM3 141526Z 01017KT 25/15 A3029 RMK A01 T02450149  RH  055%=      5-min Rain = 0
KAM3 141527Z 00011KT 24/15 A3029 RMK A01 T02410150  RH  057%=      5-min Rain = 0
KAM3 141528Z 02015KT 24/15 A3029 RMK A01 T02380152  RH  059%=      5-min Rain = 0
KAM3 141529Z 02016KT 24/15 A3029 RMK A01 T02370153  RH  059%=      5-min Rain = 0
KAM3 141530Z 03016G23KT 24/16 A303 RMK A01 T02370158  RH  061%=      5-min Rain = 0
KAM3 141531Z 03021KT 24/16 A303 RMK A01 T02360157  RH  061%=      5-min Rain = 0
KAM3 141532Z 02017KT 23/16 A303 RMK A01 T02340156  RH  061%=      5-min Rain = 0
KAM3 141533Z 02015KT 24/16 A3029 RMK A01 T02350157  RH  062%=      5-min Rain = 0
KAM3 141534Z 02018KT 24/16 A3029 RMK A01 T02360156  RH  061%=      5-min Rain = 0
KAM3 141535Z 02014KT 24/16 A3029 RMK A01 T02360155  RH  060%=      5-min Rain = 0
KAM3 141536Z 02017KT 24/16 A3029 RMK A01 T02390158  RH  060%=      5-min Rain = 0
KAM3 141537Z 02018G23KT 24/16 A3029 RMK A01 T02400157  RH  060%=      5-min Rain = 0
KAM3 141538Z 01018KT 24/16 A3029 RMK A01 T02390156  RH  060%=      5-min Rain = 0
KAM3 141539Z 02016KT 24/16 A3029 RMK A01 T02390158  RH  060%=      5-min Rain = 0
KAM3 141540Z 03016KT 24/16 A3029 RMK A01 T02390158  RH  060%=      5-min Rain = 0
KAM3 141541Z 03018KT 24/16 A3029 RMK A01 T02400157  RH  060%=      5-min Rain = 0
KAM3 141542Z 03017KT 24/16 A3029 RMK A01 T02400155  RH  059%=      5-min Rain = 0
KAM3 141543Z 02015G20KT 24/16 A3029 RMK A01 T02390158  RH  060%=      5-min Rain = 0
KAM3 141544Z 03017KT 24/16 A3029 RMK A01 T02400159  RH  060%=      5-min Rain = 0
KAM3 141545Z 03015KT 24/16 A3029 RMK A01 T02410159  RH  060%=      5-min Rain = 0
KAM3 141546Z 02017KT 24/16 A3029 RMK A01 T02420158  RH  059%=      5-min Rain = 0
KAM3 141547Z 02017G23KT 24/16 A303 RMK A01 T02420158  RH  059%=      5-min Rain = 0
KAM3 141548Z 02019KT 24/16 A303 RMK A01 T02420155  RH  058%=      5-min Rain = 0
KAM3 141549Z 03019KT 24/16 A303 RMK A01 T02400156  RH  059%=      5-min Rain = 0
KAM3 141550Z 02018KT 24/15 A303 RMK A01 T02380153  RH  059%=      5-min Rain = 0
KAM3 141551Z 02015KT 24/16 A303 RMK A01 T02370155  RH  060%=      5-min Rain = 0
KAM3 141552Z 02016KT 24/15 A3029 RMK A01 T02370154  RH  060%=      5-min Rain = 0
KAM3 141553Z 02014KT 24/15 A3029 RMK A01 T02380154  RH  059%=      5-min Rain = 0
KAM3 141554Z 02011KT 24/16 A3029 RMK A01 T02400158  RH  060%=      5-min Rain = 0
KAM3 141555Z 03012KT 24/16 A3029 RMK A01 T02440161  RH  060%=      5-min Rain = 0
KAM3 141556Z 03014KT 25/16 A3029 RMK A01 T02450160  RH  059%=      5-min Rain = 0
KAM3 141557Z 03011KT 24/16 A3029 RMK A01 T02440161  RH  060%=      5-min Rain = 0
KAM3 141558Z 05013KT 24/16 A3029 RMK A01 T02440160  RH  059%=      5-min Rain = 0
KAM3 141559Z 05012G17KT 25/16 A3029 RMK A01 T02450157  RH  058%=      5-min Rain = 0
KAM3 141600Z 03015KT 25/16 A3029 RMK A01 T02460156  RH  057%=      5-min Rain = 0
KAM3 141601Z 02015G20KT 24/16 A3029 RMK A01 T02440157  RH  058%=      5-min Rain = 0
KAM3 141602Z 03016KT 24/16 A3029 RMK A01 T02420155  RH  058%=      5-min Rain = 0
KAM3 141603Z 03015KT 24/16 A3029 RMK A01 T02410156  RH  059%=      5-min Rain = 0
KAM3 141604Z 03013KT 24/16 A3029 RMK A01 T02410160  RH  060%=      5-min Rain = 0
KAM3 141605Z 05013KT 24/16 A3029 RMK A01 T02430159  RH  059%=      5-min Rain = 0
KAM3 141606Z 06013KT 25/15 A3029 RMK A01 T02450153  RH  057%=      5-min Rain = 0
KAM3 141607Z 05012G17KT 24/15 A3029 RMK A01 T02440153  RH  057%=      5-min Rain = 0
KAM3 141608Z 04014KT 24/15 A3029 RMK A01 T02440153  RH  057%=      5-min Rain = 0
KAM3 141609Z 03017KT 24/15 A3029 RMK A01 T02430154  RH  057%=      5-min Rain = 0
KAM3 141610Z 04013KT 24/15 A3029 RMK A01 T02410154  RH  058%=      5-min Rain = 0
KAM3 141611Z 03016KT 24/15 A3028 RMK A01 T02420154  RH  058%=      5-min Rain = 0
KAM3 141612Z 04013KT 24/16 A3028 RMK A01 T02430155  RH  058%=      5-min Rain = 0
KAM3 141613Z 05012KT 24/16 A3028 RMK A01 T02440157  RH  058%=      5-min Rain = 0
KAM3 141614Z 04015KT 24/16 A3028 RMK A01 T02440157  RH  058%=      5-min Rain = 0
KAM3 141615Z 05014KT 24/16 A3028 RMK A01 T02440156  RH  058%=      5-min Rain = 0
KAM3 141616Z 04016KT 24/15 A3028 RMK A01 T02440154  RH  057%=      5-min Rain = 0
KAM3 141617Z 05019KT 25/15 A3028 RMK A01 T02450153  RH  056%=      5-min Rain = 0
KAM3 141618Z 04017KT 24/15 A3028 RMK A01 T02440152  RH  057%=      5-min Rain = 0
KAM3 141619Z 04015KT 24/15 A3028 RMK A01 T02430152  RH  057%=      5-min Rain = 0
KAM3 141620Z 03015KT 24/16 A3028 RMK A01 T02430157  RH  058%=      5-min Rain = 0
KAM3 141621Z 04015KT 25/16 A3028 RMK A01 T02460157  RH  058%=      5-min Rain = 0
KAM3 141622Z 03011KT 25/16 A3028 RMK A01 T02450158  RH  059%=      5-min Rain = 0
KAM3 141623Z 02011KT 25/16 A3028 RMK A01 T02470159  RH  058%=      5-min Rain = 0
KAM3 141624Z 04014KT 25/16 A3028 RMK A01 T02500156  RH  056%=      5-min Rain = 0
KAM3 141625Z 03011KT 25/16 A3028 RMK A01 T02500157  RH  056%=      5-min Rain = 0
KAM3 141626Z 02012KT 25/16 A3029 RMK A01 T02490158  RH  057%=      5-min Rain = 0
KAM3 141627Z 03013KT 25/16 A3028 RMK A01 T02460159  RH  058%=      5-min Rain = 0
KAM3 141628Z 04014KT 25/16 A3029 RMK A01 T02470155  RH  057%=      5-min Rain = 0
KAM3 141629Z 03015KT 25/16 A3029 RMK A01 T02470156  RH  057%=      5-min Rain = 0
KAM3 141630Z 04014KT 25/16 A3029 RMK A01 T02450155  RH  057%=      5-min Rain = 0
KAM3 141631Z 05011KT 25/16 A3028 RMK A01 T02450160  RH  059%=      5-min Rain = 0
KAM3 141632Z 05012KT 25/16 A3028 RMK A01 T02480158  RH  057%=      5-min Rain = 0
KAM3 141633Z 04012KT 25/16 A3028 RMK A01 T02490160  RH  058%=      5-min Rain = 0
KAM3 141634Z 05012KT 25/16 A3028 RMK A01 T02490160  RH  058%=      5-min Rain = 0
KAM3 141635Z 03012KT 25/16 A3029 RMK A01 T02500163  RH  058%=      5-min Rain = 0
KAM3 141636Z 03012KT 25/16 A3029 RMK A01 T02490162  RH  058%=      5-min Rain = 0
KAM3 141637Z 02013KT 25/16 A3029 RMK A01 T02510161  RH  057%=      5-min Rain = 0
KAM3 141638Z 01012KT 25/16 A3029 RMK A01 T02520160  RH  057%=      5-min Rain = 0
KAM3 141639Z 02009KT 25/16 A3029 RMK A01 T02520162  RH  058%=      5-min Rain = 0
KAM3 141640Z 00009KT 25/16 A3029 RMK A01 T02510163  RH  058%=      5-min Rain = 0
KAM3 141641Z 01013KT 25/16 A3029 RMK A01 T02540164  RH  058%=      5-min Rain = 0
KAM3 141642Z 00013KT 26/16 A303 RMK A01 T02590161  RH  055%=      5-min Rain = 0
KAM3 141643Z 34013KT 26/16 A303 RMK A01 T02580160  RH  055%=      5-min Rain = 0
KAM3 141644Z 35013KT 25/16 A303 RMK A01 T02510155  RH  055%=      5-min Rain = 0
KAM3 141645Z 00012KT 25/16 A303 RMK A01 T02460155  RH  057%=      5-min Rain = 0
KAM3 141646Z 03011KT 24/16 A303 RMK A01 T02430155  RH  058%=      5-min Rain = 0
KAM3 141647Z 03010KT 24/16 A3029 RMK A01 T02410155  RH  059%=      5-min Rain = 0
KAM3 141648Z 01010KT 24/16 A3029 RMK A01 T02400156  RH  059%=      5-min Rain = 0
KAM3 141649Z 36010KT 24/16 A3029 RMK A01 T02410156  RH  059%=      5-min Rain = 0
KAM3 141650Z 00010KT 24/16 A3029 RMK A01 T02420156  RH  059%=      5-min Rain = 0
KAM3 141651Z 01013KT 24/16 A3029 RMK A01 T02440155  RH  058%=      5-min Rain = 0
KAM3 141652Z 01012KT 24/16 A3029 RMK A01 T02440156  RH  058%=      5-min Rain = 0
KAM3 141653Z 01011KT 25/16 A3029 RMK A01 T02470155  RH  057%=      5-min Rain = 0
KAM3 141654Z 02012KT 25/16 A3029 RMK A01 T02470157  RH  057%=      5-min Rain = 0
KAM3 141655Z 02011KT 25/16 A3029 RMK A01 T02480159  RH  058%=      5-min Rain = 0
KAM3 141656Z 02010KT 25/16 A3029 RMK A01 T02480158  RH  057%=      5-min Rain = 0
KAM3 141657Z 00011KT 25/16 A3029 RMK A01 T02500159  RH  057%=      5-min Rain = 0
KAM3 141658Z 35009KT 25/16 A3029 RMK A01 T02510160  RH  057%=      5-min Rain = 0
KAM3 141659Z 36009KT 25/16 A3029 RMK A01 T02520161  RH  057%=      5-min Rain = 0
KAM3 141700Z 02010KT 25/16 A3029 RMK A01 T02520164  RH  058%=      5-min Rain = 0
KAM3 141701Z 01007G12KT 25/16 A3029 RMK A01 T02540163  RH  057%=      5-min Rain = 0
KAM3 141702Z 02008KT 26/16 A3029 RMK A01 T02560158  RH  055%=      5-min Rain = 0
KAM3 141703Z 01007KT 26/16 A3028 RMK A01 T02550156  RH  054%=      5-min Rain = 0
KAM3 141704Z 04003KT 25/16 A3028 RMK A01 T02530158  RH  055%=      5-min Rain = 0
KAM3 141705Z 01006G11KT 25/16 A3028 RMK A01 T02530157  RH  055%=      5-min Rain = 0
KAM3 141706Z 35007KT 26/16 A3028 RMK A01 T02550161  RH  056%=      5-min Rain = 0
KAM3 141707Z 35007KT 26/16 A3028 RMK A01 T02570156  RH  053%=      5-min Rain = 0
KAM3 141708Z 00004KT 25/15 A3028 RMK A01 T02540151  RH  053%=      5-min Rain = 0
KAM3 141709Z 00008KT 25/16 A3028 RMK A01 T02510158  RH  056%=      5-min Rain = 0
KAM3 141710Z 00007KT 25/16 A3028 RMK A01 T02520158  RH  056%=      5-min Rain = 0
KAM3 141711Z 03005KT 25/16 A3027 RMK A01 T02540160  RH  056%=      5-min Rain = 0
KAM3 141712Z 05007KT 26/16 A3027 RMK A01 T02580155  RH  053%=      5-min Rain = 0
KAM3 141713Z 05008KT 26/16 A3027 RMK A01 T02590155  RH  053%=      5-min Rain = 0
KAM3 141714Z 06006KT 26/15 A3027 RMK A01 T02590153  RH  052%=      5-min Rain = 0
KAM3 141715Z 04007KT 26/16 A3026 RMK A01 T02580157  RH  054%=      5-min Rain = 0
KAM3 141716Z 04006KT 26/15 A3026 RMK A01 T02580154  RH  053%=      5-min Rain = 0
KAM3 141717Z 04006KT 25/15 A3026 RMK A01 T02540151  RH  053%=      5-min Rain = 0
KAM3 141718Z 05006KT 25/15 A3026 RMK A01 T02510150  RH  054%=      5-min Rain = 0
KAM3 141719Z 04005KT 25/15 A3026 RMK A01 T02490150  RH  054%=      5-min Rain = 0
KAM3 141720Z 02002KT 25/15 A3026 RMK A01 T02480147  RH  053%=      5-min Rain = 0
KAM3 141721Z 03001KT 25/15 A3025 RMK A01 T02480148  RH  054%=      5-min Rain = 0
KAM3 141722Z 34001KT 25/15 A3025 RMK A01 T02480150  RH  055%=      5-min Rain = 0
KAM3 141723Z 24001KT 25/15 A3025 RMK A01 T02480152  RH  055%=      5-min Rain = 0
KAM3 141724Z 26002KT 25/15 A3025 RMK A01 T02480150  RH  054%=      5-min Rain = 0
KAM3 141725Z 24002KT 25/15 A3024 RMK A01 T02470152  RH  055%=      5-min Rain = 0
KAM3 141726Z 21002KT 25/15 A3024 RMK A01 T02470154  RH  056%=      5-min Rain = 0
KAM3 141727Z 16002KT 25/16 A3024 RMK A01 T02460155  RH  057%=      5-min Rain = 0
KAM3 141728Z 16005KT 25/16 A3024 RMK A01 T02460155  RH  057%=      5-min Rain = 0
KAM3 141729Z 14006KT 25/16 A3024 RMK A01 T02470155  RH  056%=      5-min Rain = 0
KAM3 141730Z 13006KT 25/15 A3024 RMK A01 T02470153  RH  056%=      5-min Rain = 0
KAM3 141731Z 13007KT 25/15 A3023 RMK A01 T02480154  RH  056%=      5-min Rain = 0
KAM3 141732Z 16007KT 25/16 A3023 RMK A01 T02480156  RH  057%=      5-min Rain = 0
KAM3 141733Z 17007KT 25/15 A3023 RMK A01 T02480154  RH  056%=      5-min Rain = 0
KAM3 141734Z 16005KT 25/15 A3023 RMK A01 T02480154  RH  056%=      5-min Rain = 0
KAM3 141735Z 16006KT 25/16 A3022 RMK A01 T02470155  RH  056%=      5-min Rain = 0
KAM3 141736Z 15009KT 25/16 A3022 RMK A01 T02470155  RH  056%=      5-min Rain = 0
KAM3 141737Z 15009KT 25/15 A3022 RMK A01 T02470151  RH  055%=      5-min Rain = 0
KAM3 141738Z 15008KT 25/15 A3021 RMK A01 T02470154  RH  056%=      5-min Rain = 0
KAM3 141739Z 16010KT 25/16 A3021 RMK A01 T02460155  RH  057%=      5-min Rain = 0
KAM3 141740Z 16009KT 25/15 A3021 RMK A01 T02460154  RH  057%=      5-min Rain = 0
KAM3 141741Z 18008KT 25/16 A3021 RMK A01 T02460156  RH  057%=      5-min Rain = 0
KAM3 141742Z 18009KT 25/16 A3021 RMK A01 T02450156  RH  057%=      5-min Rain = 0
KAM3 141743Z 18008KT 25/16 A3022 RMK A01 T02450157  RH  058%=      5-min Rain = 0
KAM3 141744Z 18010KT 25/16 A3021 RMK A01 T02450155  RH  057%=      5-min Rain = 0
KAM3 141745Z 18010KT 25/16 A3021 RMK A01 T02450156  RH  058%=      5-min Rain = 0
KAM3 141746Z 18011KT 25/16 A3021 RMK A01 T02460156  RH  057%=      5-min Rain = 0
KAM3 141747Z 17011KT 25/16 A3021 RMK A01 T02460156  RH  057%=      5-min Rain = 0
KAM3 141748Z 17009G14KT 25/16 A302 RMK A01 T02470160  RH  058%=      5-min Rain = 0
KAM3 141749Z 18009KT 25/16 A302 RMK A01 T02520162  RH  057%=      5-min Rain = 0
KAM3 141750Z 17011KT 26/16 A302 RMK A01 T02570164  RH  056%=      5-min Rain = 0
KAM3 141751Z 18013KT 26/16 A302 RMK A01 T02630164  RH  055%=      5-min Rain = 0
KAM3 141752Z 18012G17KT 27/16 A302 RMK A01 T02660163  RH  053%=      5-min Rain = 0
KAM3 141753Z 18015KT 27/16 A302 RMK A01 T02670159  RH  051%=      5-min Rain = 0
KAM3 141754Z 19011KT 26/16 A302 RMK A01 T02640160  RH  053%=      5-min Rain = 0
KAM3 141755Z 18011KT 26/16 A302 RMK A01 T02620162  RH  054%=      5-min Rain = 0
KAM3 141756Z 19011KT 26/16 A302 RMK A01 T02630159  RH  053%=      5-min Rain = 0
KAM3 141757Z 19008KT 26/16 A302 RMK A01 T02600161  RH  054%=      5-min Rain = 0
KAM3 141758Z 19012KT 26/16 A3021 RMK A01 T02590159  RH  054%=      5-min Rain = 0
KAM3 141759Z 18012KT 26/16 A3021 RMK A01 T02580158  RH  054%=      5-min Rain = 0
KAM3 141800Z 18010KT 26/16 A3021 RMK A01 T02560158  RH  055%=      5-min Rain = 0
KAM3 141801Z 20009KT 26/16 A3021 RMK A01 T02560158  RH  055%=      5-min Rain = 0
KAM3 141802Z 20009KT 26/16 A3021 RMK A01 T02560159  RH  055%=      5-min Rain = 0
KAM3 141803Z 18008KT 26/16 A3021 RMK A01 T02570158  RH  054%=      5-min Rain = 0
KAM3 141804Z 18004KT 26/16 A3021 RMK A01 T02570157  RH  054%=      5-min Rain = 0
KAM3 141805Z 17004KT 26/16 A3021 RMK A01 T02560159  RH  055%=      5-min Rain = 0
KAM3 141806Z 16002KT 26/16 A3022 RMK A01 T02570159  RH  054%=      5-min Rain = 0
KAM3 141807Z 14003KT 26/16 A3022 RMK A01 T02580159  RH  054%=      5-min Rain = 0
KAM3 141808Z 14001KT 26/16 A3022 RMK A01 T02590157  RH  053%=      5-min Rain = 0
KAM3 141809Z 21002KT 26/16 A3022 RMK A01 T02590161  RH  054%=      5-min Rain = 0
KAM3 141810Z 28001KT 26/16 A3022 RMK A01 T02600159  RH  054%=      5-min Rain = 0
KAM3 141811Z 34003KT 26/16 A3022 RMK A01 T02610161  RH  054%=      5-min Rain = 0
KAM3 141812Z 36003KT 26/16 A3022 RMK A01 T02630163  RH  054%=      5-min Rain = 0
KAM3 141813Z 35003KT 26/16 A3023 RMK A01 T02640159  RH  053%=      5-min Rain = 0
KAM3 141814Z 29003KT 26/16 A3023 RMK A01 T02630162  RH  054%=      5-min Rain = 0
KAM3 141815Z 28004KT 26/16 A3023 RMK A01 T02630161  RH  053%=      5-min Rain = 0
KAM3 141816Z 26005KT 26/16 A3023 RMK A01 T02640161  RH  053%=      5-min Rain = 0
KAM3 141817Z 24003KT 26/16 A3023 RMK A01 T02640158  RH  052%=      5-min Rain = 0
KAM3 141818Z 20002KT 26/16 A3023 RMK A01 T02640159  RH  052%=      5-min Rain = 0
KAM3 141819Z 13001KT 26/16 A3023 RMK A01 T02640156  RH  052%=      5-min Rain = 0
KAM3 141820Z 09001KT 26/16 A3022 RMK A01 T02640160  RH  053%=      5-min Rain = 0
KAM3 141821Z 11001KT 26/16 A3022 RMK A01 T02640157  RH  052%=      5-min Rain = 0
KAM3 141822Z 20001KT 27/16 A3022 RMK A01 T02650157  RH  052%=      5-min Rain = 0
KAM3 141823Z 23003KT 27/15 A3022 RMK A01 T02650154  RH  050%=      5-min Rain = 0
KAM3 141824Z 27002KT 27/15 A3022 RMK A01 T02650153  RH  050%=      5-min Rain = 0
KAM3 141825Z 29003KT 26/15 A3022 RMK A01 T02640153  RH  050%=      5-min Rain = 0
KAM3 141826Z 28003KT 26/15 A3022 RMK A01 T02640148  RH  049%=      5-min Rain = 0
KAM3 141827Z 27001KT 26/14 A3022 RMK A01 T02630144  RH  048%=      5-min Rain = 0
KAM3 141828Z 00000KT 26/14 A3022 RMK A01 T02620144  RH  048%=      5-min Rain = 0
KAM3 141829Z 26000KT 26/14 A3022 RMK A01 T02620142  RH  048%=      5-min Rain = 0
KAM3 141830Z 21000KT 26/14 A3022 RMK A01 T02620143  RH  048%=      5-min Rain = 0
KAM3 141831Z 20001KT 26/15 A3022 RMK A01 T02630145  RH  048%=      5-min Rain = 0
KAM3 141832Z 18001KT 26/15 A3022 RMK A01 T02640146  RH  048%=      5-min Rain = 0
KAM3 141833Z 20002KT 26/15 A3022 RMK A01 T02640147  RH  049%=      5-min Rain = 0
KAM3 141834Z 19002KT 26/15 A3022 RMK A01 T02640151  RH  050%=      5-min Rain = 0
KAM3 141835Z 16001KT 26/15 A3022 RMK A01 T02640150  RH  050%=      5-min Rain = 0
KAM3 141836Z 09000KT 26/15 A3021 RMK A01 T02640150  RH  050%=      5-min Rain = 0
KAM3 141837Z 29000KT 27/15 A3021 RMK A01 T02650152  RH  050%=      5-min Rain = 0
KAM3 141838Z 22002KT 27/15 A3021 RMK A01 T02680153  RH  049%=      5-min Rain = 0
KAM3 141839Z 25002KT 27/15 A3021 RMK A01 T02690152  RH  049%=      5-min Rain = 0
KAM3 141840Z 26002KT 27/15 A3021 RMK A01 T02690152  RH  049%=      5-min Rain = 0
KAM3 141841Z 27002KT 27/15 A3021 RMK A01 T02690151  RH  048%=      5-min Rain = 0
KAM3 141842Z 08004KT 27/16 A3021 RMK A01 T02700159  RH  051%=      5-min Rain = 0
KAM3 141843Z 09004KT 27/16 A3021 RMK A01 T02710160  RH  051%=      5-min Rain = 0
KAM3 141844Z 11007KT 27/16 A3021 RMK A01 T02720161  RH  051%=      5-min Rain = 0
KAM3 141845Z 06007KT 28/16 A3021 RMK A01 T02750160  RH  050%=      5-min Rain = 0
KAM3 141846Z 05005KT 28/16 A3021 RMK A01 T02780160  RH  049%=      5-min Rain = 0
KAM3 141847Z 04007KT 28/16 A3021 RMK A01 T02800160  RH  048%=      5-min Rain = 0
KAM3 141848Z 03004KT 28/16 A3021 RMK A01 T02790158  RH  048%=      5-min Rain = 0
KAM3 141849Z 07004KT 28/16 A3021 RMK A01 T02780162  RH  049%=      5-min Rain = 0
KAM3 141850Z 09005KT 28/16 A3021 RMK A01 T02780161  RH  049%=      5-min Rain = 0
KAM3 141851Z 08005KT 28/16 A3021 RMK A01 T02780162  RH  049%=      5-min Rain = 0
KAM3 141852Z 07003KT 28/16 A302 RMK A01 T02790162  RH  049%=      5-min Rain = 0
KAM3 141853Z 12005KT 28/16 A302 RMK A01 T02800160  RH  048%=      5-min Rain = 0
KAM3 141854Z 11004KT 28/16 A302 RMK A01 T02790161  RH  049%=      5-min Rain = 0
KAM3 141855Z 09004KT 28/16 A302 RMK A01 T02790158  RH  048%=      5-min Rain = 0
KAM3 141856Z 06005KT 28/16 A302 RMK A01 T02790160  RH  048%=      5-min Rain = 0
KAM3 141857Z 07006KT 28/16 A302 RMK A01 T02780158  RH  048%=      5-min Rain = 0
KAM3 141858Z 10005KT 28/16 A3021 RMK A01 T02780158  RH  048%=      5-min Rain = 0
KAM3 141859Z 11005KT 28/16 A3021 RMK A01 T02780156  RH  048%=      5-min Rain = 0
KAM3 141900Z 13004KT 28/16 A3021 RMK A01 T02780159  RH  048%=      5-min Rain = 0
KAM3 141901Z 16003KT 28/16 A302 RMK A01 T02780155  RH  047%=      5-min Rain = 0
KAM3 141902Z 12007KT 28/16 A3021 RMK A01 T02780155  RH  047%=      5-min Rain = 0
KAM3 141903Z 10005KT 28/16 A3021 RMK A01 T02770157  RH  048%=      5-min Rain = 0
KAM3 141904Z 10004KT 28/15 A302 RMK A01 T02760154  RH  047%=      5-min Rain = 0
KAM3 141905Z 07002KT 28/15 A302 RMK A01 T02750154  RH  048%=      5-min Rain = 0
KAM3 141906Z 00001KT 28/15 A302 RMK A01 T02750153  RH  047%=      5-min Rain = 0
KAM3 141907Z 30002KT 28/16 A302 RMK A01 T02760155  RH  048%=      5-min Rain = 0
KAM3 141908Z 33003KT 28/16 A302 RMK A01 T02770158  RH  048%=      5-min Rain = 0
KAM3 141909Z 32002KT 28/16 A302 RMK A01 T02790161  RH  049%=      5-min Rain = 0
KAM3 141910Z 20002KT 28/16 A302 RMK A01 T02820161  RH  048%=      5-min Rain = 0
KAM3 141911Z 17004KT 28/16 A302 RMK A01 T02830157  RH  046%=      5-min Rain = 0
KAM3 141912Z 16002KT 28/16 A302 RMK A01 T02830161  RH  047%=      5-min Rain = 0
KAM3 141913Z 17002KT 28/16 A302 RMK A01 T02840158  RH  046%=      5-min Rain = 0
KAM3 141914Z 11002KT 28/16 A302 RMK A01 T02840160  RH  047%=      5-min Rain = 0
KAM3 141915Z 11003KT 28/16 A302 RMK A01 T02830156  RH  046%=      5-min Rain = 0
KAM3 141916Z 07003KT 28/16 A302 RMK A01 T02830164  RH  048%=      5-min Rain = 0
KAM3 141917Z 06004KT 29/16 A302 RMK A01 T02850159  RH  046%=      5-min Rain = 0
KAM3 141918Z 05005KT 29/16 A302 RMK A01 T02850159  RH  046%=      5-min Rain = 0
KAM3 141919Z 02004KT 28/16 A302 RMK A01 T02840159  RH  047%=      5-min Rain = 0
KAM3 141920Z 35003KT 28/16 A302 RMK A01 T02830162  RH  048%=      5-min Rain = 0
KAM3 141921Z 01002KT 29/16 A302 RMK A01 T02850158  RH  046%=      5-min Rain = 0
KAM3 141922Z 05004KT 29/16 A302 RMK A01 T02850161  RH  047%=      5-min Rain = 0
KAM3 141923Z 05003KT 29/16 A302 RMK A01 T02860160  RH  046%=      5-min Rain = 0
KAM3 141924Z 05004KT 29/16 A302 RMK A01 T02850158  RH  046%=      5-min Rain = 0
KAM3 141925Z 05005KT 28/16 A302 RMK A01 T02840156  RH  046%=      5-min Rain = 0
KAM3 141926Z 03006KT 28/16 A302 RMK A01 T02840159  RH  046%=      5-min Rain = 0
KAM3 141927Z 32004KT 29/16 A302 RMK A01 T02850157  RH  046%=      5-min Rain = 0
KAM3 141928Z 04004KT 28/16 A302 RMK A01 T02840160  RH  047%=      5-min Rain = 0
KAM3 141929Z 06005KT 29/16 A302 RMK A01 T02850159  RH  046%=      5-min Rain = 0
KAM3 141930Z 05005KT 29/16 A302 RMK A01 T02860157  RH  046%=      5-min Rain = 0
KAM3 141931Z 04005KT 29/16 A3019 RMK A01 T02850159  RH  046%=      5-min Rain = 0
KAM3 141932Z 35002KT 29/16 A3019 RMK A01 T02850160  RH  047%=      5-min Rain = 0
KAM3 141933Z 04004KT 29/16 A3019 RMK A01 T02870158  RH  046%=      5-min Rain = 0
KAM3 141934Z 05006KT 29/16 A3019 RMK A01 T02880157  RH  045%=      5-min Rain = 0
KAM3 141935Z 06005KT 29/16 A3019 RMK A01 T02880157  RH  045%=      5-min Rain = 0
KAM3 141936Z 12001KT 29/16 A3019 RMK A01 T02880155  RH  045%=      5-min Rain = 0
KAM3 141937Z 21001KT 29/16 A3019 RMK A01 T02870157  RH  045%=      5-min Rain = 0
KAM3 141938Z 12003KT 29/16 A3019 RMK A01 T02870159  RH  046%=      5-min Rain = 0
KAM3 141939Z 13006KT 29/16 A3019 RMK A01 T02890159  RH  045%=      5-min Rain = 0
KAM3 141940Z 13004KT 29/16 A3019 RMK A01 T02900158  RH  045%=      5-min Rain = 0
KAM3 141941Z 14002KT 29/16 A3019 RMK A01 T02900160  RH  045%=      5-min Rain = 0
KAM3 141942Z 14003KT 29/16 A3019 RMK A01 T02900160  RH  045%=      5-min Rain = 0
KAM3 141943Z 12001KT 29/16 A3019 RMK A01 T02920159  RH  045%=      5-min Rain = 0
KAM3 141944Z 14003KT 29/16 A3019 RMK A01 T02930164  RH  046%=      5-min Rain = 0
KAM3 141945Z 13004KT 30/16 A3019 RMK A01 T02970162  RH  044%=      5-min Rain = 0
KAM3 141946Z 16002KT 30/16 A3019 RMK A01 T02990162  RH  044%=      5-min Rain = 0
KAM3 141947Z 17002KT 30/16 A3019 RMK A01 T03000157  RH  042%=      5-min Rain = 0
KAM3 141948Z 16002KT 30/16 A3019 RMK A01 T03000159  RH  042%=      5-min Rain = 0
KAM3 141949Z 18002KT 30/16 A3019 RMK A01 T03000157  RH  042%=      5-min Rain = 0
KAM3 141950Z 19004KT 30/16 A3019 RMK A01 T03000160  RH  043%=      5-min Rain = 0
KAM3 141951Z 20004KT 30/16 A3019 RMK A01 T03000156  RH  042%=      5-min Rain = 0
KAM3 141952Z 21003KT 30/16 A3019 RMK A01 T02980159  RH  043%=      5-min Rain = 0
KAM3 141953Z 19002KT 30/16 A3019 RMK A01 T02980161  RH  044%=      5-min Rain = 0
KAM3 141954Z 21001KT 30/16 A3019 RMK A01 T02980156  RH  042%=      5-min Rain = 0
KAM3 141955Z 17001KT 30/16 A3019 RMK A01 T02970158  RH  043%=      5-min Rain = 0
KAM3 141956Z 31000KT 30/16 A3018 RMK A01 T02970162  RH  044%=      5-min Rain = 0
KAM3 141957Z 26001KT 30/17 A3018 RMK A01 T03010165  RH  044%=      5-min Rain = 0
KAM3 141958Z 23002KT 31/16 A3018 RMK A01 T03050162  RH  042%=      5-min Rain = 0
KAM3 141959Z 10005KT 31/16 A3018 RMK A01 T03060159  RH  041%=      5-min Rain = 0
KAM3 142000Z 06003KT 31/16 A3018 RMK A01 T03070163  RH  042%=      5-min Rain = 0
KAM3 142001Z 14003KT 31/16 A3018 RMK A01 T03060159  RH  041%=      5-min Rain = 0
KAM3 142002Z 17004KT 31/17 A3018 RMK A01 T03050165  RH  043%=      5-min Rain = 0
KAM3 142003Z 18005KT 31/16 A3018 RMK A01 T03050160  RH  041%=      5-min Rain = 0
KAM3 142004Z 18006KT 30/16 A3018 RMK A01 T03040160  RH  042%=      5-min Rain = 0
KAM3 142005Z 17006KT 30/16 A3018 RMK A01 T03030158  RH  042%=      5-min Rain = 0
KAM3 142006Z 17005KT 30/16 A3018 RMK A01 T03020157  RH  041%=      5-min Rain = 0
KAM3 142007Z 21006KT 30/16 A3018 RMK A01 T03000157  RH  042%=      5-min Rain = 0
KAM3 142008Z 20006KT 30/16 A3018 RMK A01 T02990158  RH  042%=      5-min Rain = 0
KAM3 142009Z 19006KT 30/16 A3018 RMK A01 T02990158  RH  043%=      5-min Rain = 0
KAM3 142010Z 20002KT 30/16 A3018 RMK A01 T02980155  RH  042%=      5-min Rain = 0
KAM3 142011Z 03001KT 30/16 A3017 RMK A01 T02970155  RH  042%=      5-min Rain = 0
KAM3 142012Z 06001KT 30/16 A3017 RMK A01 T02960162  RH  044%=      5-min Rain = 0
KAM3 142013Z 07001KT 30/16 A3017 RMK A01 T02980158  RH  043%=      5-min Rain = 0
KAM3 142014Z 17002KT 30/16 A3017 RMK A01 T02990161  RH  043%=      5-min Rain = 0
KAM3 142015Z 15003KT 30/16 A3017 RMK A01 T03030160  RH  042%=      5-min Rain = 0
KAM3 142016Z 17003KT 31/16 A3017 RMK A01 T03050162  RH  042%=      5-min Rain = 0
KAM3 142017Z 15003KT 31/16 A3017 RMK A01 T03080159  RH  041%=      5-min Rain = 0
KAM3 142018Z 13002KT 31/16 A3017 RMK A01 T03090160  RH  041%=      5-min Rain = 0
KAM3 142019Z 16003KT 31/16 A3017 RMK A01 T03090160  RH  041%=      5-min Rain = 0
KAM3 142020Z 17001KT 31/16 A3017 RMK A01 T03080155  RH  040%=      5-min Rain = 0
KAM3 142021Z 21003KT 31/16 A3017 RMK A01 T03070160  RH  041%=      5-min Rain = 0
KAM3 142022Z 21002KT 31/16 A3017 RMK A01 T03080158  RH  040%=      5-min Rain = 0
KAM3 142023Z 18004KT 31/16 A3017 RMK A01 T03080158  RH  041%=      5-min Rain = 0
KAM3 142024Z 17002KT 31/16 A3017 RMK A01 T03070158  RH  041%=      5-min Rain = 0
KAM3 142025Z 17003KT 31/16 A3017 RMK A01 T03070161  RH  041%=      5-min Rain = 0
KAM3 142026Z 16005KT 31/16 A3017 RMK A01 T03080157  RH  040%=      5-min Rain = 0
KAM3 142027Z 19005KT 31/16 A3017 RMK A01 T03070159  RH  041%=      5-min Rain = 0
KAM3 142028Z 21004KT 31/16 A3017 RMK A01 T03080157  RH  040%=      5-min Rain = 0
KAM3 142029Z 19002KT 31/16 A3017 RMK A01 T03090156  RH  040%=      5-min Rain = 0
KAM3 142030Z 17002KT 31/16 A3017 RMK A01 T03090157  RH  040%=      5-min Rain = 0
KAM3 142031Z 16002KT 31/16 A3016 RMK A01 T03100157  RH  040%=      5-min Rain = 0
KAM3 142032Z 20003KT 31/15 A3016 RMK A01 T03110153  RH  039%=      5-min Rain = 0
KAM3 142033Z 18004KT 31/16 A3016 RMK A01 T03110155  RH  039%=      5-min Rain = 0
KAM3 142034Z 22003KT 31/15 A3016 RMK A01 T03110154  RH  039%=      5-min Rain = 0
KAM3 142035Z 24002KT 31/15 A3016 RMK A01 T03100153  RH  039%=      5-min Rain = 0
KAM3 142036Z 29000KT 31/15 A3016 RMK A01 T03080150  RH  038%=      5-min Rain = 0
KAM3 142037Z 07001KT 31/15 A3016 RMK A01 T03070150  RH  038%=      5-min Rain = 0
KAM3 142038Z 11001KT 31/15 A3016 RMK A01 T03060151  RH  039%=      5-min Rain = 0
KAM3 142039Z 15002KT 31/16 A3016 RMK A01 T03070155  RH  040%=      5-min Rain = 0
KAM3 142040Z 18000KT 31/15 A3016 RMK A01 T03080151  RH  039%=      5-min Rain = 0
KAM3 142041Z 30000KT 31/15 A3016 RMK A01 T03090154  RH  039%=      5-min Rain = 0
KAM3 142042Z 02001KT 31/16 A3016 RMK A01 T03110163  RH  041%=      5-min Rain = 0
KAM3 142043Z 01002KT 31/16 A3016 RMK A01 T03140156  RH  038%=      5-min Rain = 0
KAM3 142044Z 34003KT 32/16 A3016 RMK A01 T03160159  RH  039%=      5-min Rain = 0
KAM3 142045Z 29002KT 32/16 A3016 RMK A01 T03160157  RH  038%=      5-min Rain = 0
KAM3 142046Z 20002KT 32/16 A3016 RMK A01 T03170157  RH  038%=      5-min Rain = 0
KAM3 142047Z 18003KT 32/15 A3016 RMK A01 T03170152  RH  037%=      5-min Rain = 0
KAM3 142048Z 13001KT 32/15 A3016 RMK A01 T03150151  RH  037%=      5-min Rain = 0
KAM3 142049Z 15001KT 31/16 A3016 RMK A01 T03140155  RH  038%=      5-min Rain = 0
KAM3 142050Z 18004KT 31/16 A3015 RMK A01 T03140157  RH  039%=      5-min Rain = 0
KAM3 142051Z 18005KT 32/15 A3015 RMK A01 T03150153  RH  038%=      5-min Rain = 0
KAM3 142052Z 12002KT 31/15 A3015 RMK A01 T03140152  RH  038%=      5-min Rain = 0
KAM3 142053Z 06002KT 31/16 A3015 RMK A01 T03130155  RH  038%=      5-min Rain = 0
KAM3 142054Z 01002KT 31/16 A3015 RMK A01 T03120157  RH  039%=      5-min Rain = 0
KAM3 142055Z 12001KT 31/16 A3015 RMK A01 T03130161  RH  040%=      5-min Rain = 0
KAM3 142056Z 10003KT 32/17 A3015 RMK A01 T03160165  RH  040%=      5-min Rain = 0
KAM3 142057Z 15002KT 32/17 A3015 RMK A01 T03190166  RH  040%=      5-min Rain = 0
KAM3 142058Z 12004KT 32/17 A3015 RMK A01 T03200168  RH  040%=      5-min Rain = 0
KAM3 142059Z 11004KT 32/16 A3015 RMK A01 T03210163  RH  039%=      5-min Rain = 0
KAM3 142100Z 12004KT 32/17 A3015 RMK A01 T03210168  RH  040%=      5-min Rain = 0
KAM3 142101Z 11003KT 32/16 A3015 RMK A01 T03220162  RH  038%=      5-min Rain = 0
KAM3 142102Z 14006KT 32/17 A3015 RMK A01 T03210167  RH  040%=      5-min Rain = 0
KAM3 142103Z 13005KT 32/16 A3015 RMK A01 T03200161  RH  038%=      5-min Rain = 0
KAM3 142104Z 15005KT 32/16 A3015 RMK A01 T03160162  RH  039%=      5-min Rain = 0
KAM3 142105Z 14007KT 31/16 A3015 RMK A01 T03140161  RH  040%=      5-min Rain = 0
KAM3 142106Z 14007KT 31/16 A3015 RMK A01 T03130160  RH  040%=      5-min Rain = 0
KAM3 142107Z 12007KT 31/16 A3015 RMK A01 T03130160  RH  040%=      5-min Rain = 0
KAM3 142108Z 12007KT 31/16 A3015 RMK A01 T03120158  RH  039%=      5-min Rain = 0
KAM3 142109Z 14005KT 31/16 A3015 RMK A01 T03110158  RH  040%=      5-min Rain = 0
KAM3 142110Z 15003KT 31/16 A3015 RMK A01 T03100157  RH  040%=      5-min Rain = 0
KAM3 142111Z 17002G7KT 31/16 A3015 RMK A01 T03100159  RH  040%=      5-min Rain = 0
KAM3 142112Z 16006KT 31/16 A3015 RMK A01 T03110158  RH  040%=      5-min Rain = 0
KAM3 142113Z 16005KT 31/16 A3015 RMK A01 T03120162  RH  040%=      5-min Rain = 0
KAM3 142114Z 17003KT 32/16 A3015 RMK A01 T03150163  RH  040%=      5-min Rain = 0
KAM3 142115Z 16004KT 32/16 A3015 RMK A01 T03170161  RH  039%=      5-min Rain = 0
KAM3 142116Z 16003KT 32/16 A3015 RMK A01 T03170160  RH  039%=      5-min Rain = 0
KAM3 142117Z 20005KT 32/16 A3015 RMK A01 T03180159  RH  038%=      5-min Rain = 0
KAM3 142118Z 18005KT 32/16 A3015 RMK A01 T03180161  RH  039%=      5-min Rain = 0
KAM3 142119Z 19003KT 32/16 A3014 RMK A01 T03180155  RH  038%=      5-min Rain = 0
KAM3 142120Z 16002KT 32/16 A3014 RMK A01 T03170157  RH  038%=      5-min Rain = 0
KAM3 142121Z 16003KT 32/16 A3014 RMK A01 T03170157  RH  038%=      5-min Rain = 0
KAM3 142122Z 16003KT 32/16 A3014 RMK A01 T03180161  RH  039%=      5-min Rain = 0
KAM3 142123Z 18004KT 32/16 A3014 RMK A01 T03190156  RH  037%=      5-min Rain = 0
KAM3 142124Z 21004KT 32/16 A3014 RMK A01 T03180157  RH  038%=      5-min Rain = 0
KAM3 142125Z 24003KT 32/16 A3014 RMK A01 T03170157  RH  038%=      5-min Rain = 0
KAM3 142126Z 15003KT 32/16 A3014 RMK A01 T03160159  RH  039%=      5-min Rain = 0
KAM3 142127Z 09005KT 32/16 A3014 RMK A01 T03180162  RH  039%=      5-min Rain = 0
KAM3 142128Z 11006KT 32/16 A3014 RMK A01 T03190158  RH  038%=      5-min Rain = 0
KAM3 142129Z 12005KT 32/15 A3014 RMK A01 T03190154  RH  037%=      5-min Rain = 0
KAM3 142130Z 13004KT 32/16 A3014 RMK A01 T03170155  RH  038%=      5-min Rain = 0
KAM3 142131Z 11003KT 32/16 A3014 RMK A01 T03160156  RH  038%=      5-min Rain = 0
KAM3 142132Z 12004KT 32/16 A3014 RMK A01 T03170158  RH  038%=      5-min Rain = 0
KAM3 142133Z 12002KT 32/15 A3014 RMK A01 T03180154  RH  037%=      5-min Rain = 0
KAM3 142134Z 10002KT 32/16 A3014 RMK A01 T03170156  RH  038%=      5-min Rain = 0
KAM3 142135Z 25001KT 32/16 A3013 RMK A01 T03160155  RH  038%=      5-min Rain = 0
KAM3 142136Z 10003KT 32/16 A3013 RMK A01 T03160160  RH  039%=      5-min Rain = 0
KAM3 142137Z 10007KT 32/16 A3013 RMK A01 T03180160  RH  039%=      5-min Rain = 0
KAM3 142138Z 13006KT 32/16 A3013 RMK A01 T03190159  RH  038%=      5-min Rain = 0
KAM3 142139Z 10005KT 32/16 A3013 RMK A01 T03190159  RH  038%=      5-min Rain = 0
KAM3 142140Z 09007KT 32/16 A3013 RMK A01 T03190155  RH  037%=      5-min Rain = 0
KAM3 142141Z 06005KT 32/16 A3013 RMK A01 T03200158  RH  038%=      5-min Rain = 0
KAM3 142142Z 02005KT 32/16 A3013 RMK A01 T03230160  RH  037%=      5-min Rain = 0
KAM3 142143Z 07006KT 33/16 A3013 RMK A01 T03250157  RH  037%=      5-min Rain = 0
KAM3 142144Z 07005KT 32/16 A3013 RMK A01 T03240156  RH  036%=      5-min Rain = 0
KAM3 142145Z 06004KT 32/16 A3013 RMK A01 T03230156  RH  036%=      5-min Rain = 0
KAM3 142146Z 06005KT 32/16 A3013 RMK A01 T03230156  RH  037%=      5-min Rain = 0
KAM3 142147Z 06007KT 32/16 A3013 RMK A01 T03230155  RH  036%=      5-min Rain = 0
KAM3 142148Z 04005KT 32/15 A3013 RMK A01 T03230153  RH  036%=      5-min Rain = 0
KAM3 142149Z 01003KT 32/15 A3013 RMK A01 T03200152  RH  036%=      5-min Rain = 0
KAM3 142150Z 08002KT 32/16 A3013 RMK A01 T03190157  RH  038%=      5-min Rain = 0
KAM3 142151Z 07005KT 32/16 A3013 RMK A01 T03190159  RH  038%=      5-min Rain = 0
KAM3 142152Z 06006KT 32/16 A3013 RMK A01 T03230161  RH  038%=      5-min Rain = 0
KAM3 142153Z 07007KT 32/16 A3013 RMK A01 T03240157  RH  037%=      5-min Rain = 0
KAM3 142154Z 07006KT 32/16 A3013 RMK A01 T03230158  RH  037%=      5-min Rain = 0
KAM3 142155Z 09006KT 32/16 A3013 RMK A01 T03230157  RH  037%=      5-min Rain = 0
KAM3 142156Z 06005KT 32/16 A3013 RMK A01 T03220156  RH  037%=      5-min Rain = 0
KAM3 142157Z 07006KT 32/16 A3013 RMK A01 T03200158  RH  038%=      5-min Rain = 0
KAM3 142158Z 08006KT 32/16 A3013 RMK A01 T03210158  RH  038%=      5-min Rain = 0
KAM3 142159Z 10006KT 32/16 A3013 RMK A01 T03200155  RH  037%=      5-min Rain = 0
KAM3 142200Z 14002KT 32/15 A3012 RMK A01 T03200154  RH  037%=      5-min Rain = 0
KAM3 142201Z 11002KT 32/16 A3012 RMK A01 T03200158  RH  038%=      5-min Rain = 0
KAM3 142202Z 12005KT 32/16 A3012 RMK A01 T03200155  RH  037%=      5-min Rain = 0
KAM3 142203Z 10004KT 32/16 A3012 RMK A01 T03200158  RH  038%=      5-min Rain = 0
KAM3 142204Z 13002KT 32/16 A3012 RMK A01 T03220156  RH  037%=      5-min Rain = 0
KAM3 142205Z 16004KT 32/16 A3012 RMK A01 T03230157  RH  037%=      5-min Rain = 0
KAM3 142206Z 17005KT 32/16 A3012 RMK A01 T03240155  RH  036%=      5-min Rain = 0
KAM3 142207Z 18004KT 32/16 A3012 RMK A01 T03240156  RH  036%=      5-min Rain = 0
KAM3 142208Z 20004KT 32/16 A3012 RMK A01 T03220155  RH  036%=      5-min Rain = 0
KAM3 142209Z 18005KT 32/16 A3012 RMK A01 T03210155  RH  037%=      5-min Rain = 0
KAM3 142210Z 19005KT 32/16 A3012 RMK A01 T03210156  RH  037%=      5-min Rain = 0
KAM3 142211Z 18004KT 32/16 A3012 RMK A01 T03210157  RH  037%=      5-min Rain = 0
KAM3 142212Z 17005KT 32/16 A3012 RMK A01 T03220160  RH  038%=      5-min Rain = 0
KAM3 142213Z 13005KT 32/16 A3012 RMK A01 T03240160  RH  037%=      5-min Rain = 0
KAM3 142214Z 10007KT 33/16 A3012 RMK A01 T03260162  RH  038%=      5-min Rain = 0
KAM3 142215Z 08009KT 33/16 A3012 RMK A01 T03260161  RH  037%=      5-min Rain = 0
KAM3 142216Z 07009KT 32/16 A3012 RMK A01 T03230160  RH  038%=      5-min Rain = 0
KAM3 142217Z 06007KT 32/16 A3012 RMK A01 T03220161  RH  038%=      5-min Rain = 0
KAM3 142218Z 06009KT 32/16 A3012 RMK A01 T03220159  RH  037%=      5-min Rain = 0
KAM3 142219Z 05007KT 32/16 A3012 RMK A01 T03200157  RH  038%=      5-min Rain = 0
KAM3 142220Z 06007KT 32/16 A3012 RMK A01 T03180160  RH  038%=      5-min Rain = 0
KAM3 142221Z 07006KT 32/16 A3012 RMK A01 T03200159  RH  038%=      5-min Rain = 0
KAM3 142222Z 08007G12KT 32/16 A3012 RMK A01 T03200159  RH  038%=      5-min Rain = 0
KAM3 142223Z 08007KT 32/16 A3012 RMK A01 T03210159  RH  038%=      5-min Rain = 0
KAM3 142224Z 09006KT 32/16 A3011 RMK A01 T03220160  RH  038%=      5-min Rain = 0
KAM3 142225Z 05005KT 32/16 A3011 RMK A01 T03230163  RH  038%=      5-min Rain = 0
KAM3 142226Z 07005KT 33/16 A3011 RMK A01 T03250162  RH  038%=      5-min Rain = 0
KAM3 142227Z 10006KT 33/16 A3011 RMK A01 T03260159  RH  037%=      5-min Rain = 0
KAM3 142228Z 10007KT 32/16 A3011 RMK A01 T03230156  RH  037%=      5-min Rain = 0
KAM3 142229Z 11008KT 32/16 A3011 RMK A01 T03200157  RH  037%=      5-min Rain = 0
KAM3 142230Z 12010KT 32/16 A3011 RMK A01 T03200160  RH  038%=      5-min Rain = 0
KAM3 142231Z 12007KT 32/16 A3011 RMK A01 T03210158  RH  037%=      5-min Rain = 0
KAM3 142232Z 09006KT 32/16 A3011 RMK A01 T03210161  RH  038%=      5-min Rain = 0
KAM3 142233Z 10007KT 32/16 A3011 RMK A01 T03230158  RH  037%=      5-min Rain = 0
KAM3 142234Z 11007KT 32/16 A3011 RMK A01 T03240158  RH  037%=      5-min Rain = 0
KAM3 142235Z 10006KT 32/16 A3011 RMK A01 T03230160  RH  038%=      5-min Rain = 0
KAM3 142236Z 09006KT 32/16 A3011 RMK A01 T03220160  RH  038%=      5-min Rain = 0
KAM3 142237Z 07010KT 32/16 A3011 RMK A01 T03220162  RH  038%=      5-min Rain = 0
KAM3 142238Z 08010KT 32/16 A3011 RMK A01 T03200163  RH  039%=      5-min Rain = 0
KAM3 142239Z 06012KT 32/16 A3011 RMK A01 T03200163  RH  039%=      5-min Rain = 0
KAM3 142240Z 06010KT 32/16 A3011 RMK A01 T03200164  RH  039%=      5-min Rain = 0
KAM3 142241Z 08009KT 32/16 A3011 RMK A01 T03200162  RH  039%=      5-min Rain = 0
KAM3 142242Z 08009KT 32/16 A3011 RMK A01 T03200164  RH  039%=      5-min Rain = 0
KAM3 142243Z 09007KT 32/16 A3011 RMK A01 T03200162  RH  038%=      5-min Rain = 0
KAM3 142244Z 08007KT 32/16 A3011 RMK A01 T03190164  RH  039%=      5-min Rain = 0
KAM3 142245Z 08010KT 32/16 A3011 RMK A01 T03210162  RH  038%=      5-min Rain = 0
KAM3 142246Z 08007KT 32/16 A3011 RMK A01 T03190160  RH  038%=      5-min Rain = 0
KAM3 142247Z 07006KT 32/16 A3011 RMK A01 T03170163  RH  039%=      5-min Rain = 0
KAM3 142248Z 08009KT 32/16 A3011 RMK A01 T03190162  RH  039%=      5-min Rain = 0
KAM3 142249Z 07010KT 32/16 A3011 RMK A01 T03190162  RH  039%=      5-min Rain = 0
KAM3 142250Z 08007KT 32/16 A3011 RMK A01 T03190162  RH  039%=      5-min Rain = 0
KAM3 142251Z 08005KT 32/16 A3011 RMK A01 T03180160  RH  039%=      5-min Rain = 0
KAM3 142252Z 07004KT 32/16 A3011 RMK A01 T03160161  RH  039%=      5-min Rain = 0
KAM3 142253Z 05007KT 32/16 A3011 RMK A01 T03160163  RH  040%=      5-min Rain = 0
KAM3 142254Z 07007KT 32/16 A3011 RMK A01 T03170161  RH  039%=      5-min Rain = 0
KAM3 142255Z 10008KT 32/16 A3011 RMK A01 T03170162  RH  039%=      5-min Rain = 0
KAM3 142256Z 11008KT 32/16 A3011 RMK A01 T03180161  RH  039%=      5-min Rain = 0
KAM3 142257Z 11007KT 32/16 A3011 RMK A01 T03170161  RH  039%=      5-min Rain = 0
KAM3 142258Z 10009KT 32/16 A3011 RMK A01 T03170160  RH  039%=      5-min Rain = 0
KAM3 142259Z 11007KT 32/16 A3011 RMK A01 T03160160  RH  039%=      5-min Rain = 0
KAM3 142300Z 11006KT 32/16 A3011 RMK A01 T03160162  RH  039%=      5-min Rain = 0
KAM3 142301Z 08006KT 32/17 A3011 RMK A01 T03160165  RH  040%=      5-min Rain = 0
KAM3 142302Z 08009KT 32/16 A3011 RMK A01 T03190161  RH  039%=      5-min Rain = 0
KAM3 142303Z 09008KT 32/16 A3011 RMK A01 T03190162  RH  039%=      5-min Rain = 0
KAM3 142304Z 09007KT 32/16 A3011 RMK A01 T03190159  RH  038%=      5-min Rain = 0
KAM3 142305Z 09007KT 32/16 A3011 RMK A01 T03190162  RH  039%=      5-min Rain = 0
KAM3 142306Z 08007KT 32/17 A3011 RMK A01 T03200165  RH  040%=      5-min Rain = 0
KAM3 142307Z 07006KT 32/16 A3011 RMK A01 T03210164  RH  039%=      5-min Rain = 0
KAM3 142308Z 07008KT 32/16 A3011 RMK A01 T03210162  RH  039%=      5-min Rain = 0
KAM3 142309Z 08008KT 32/16 A3011 RMK A01 T03210162  RH  039%=      5-min Rain = 0
KAM3 142310Z 08008KT 32/16 A3011 RMK A01 T03200160  RH  038%=      5-min Rain = 0
KAM3 142311Z 07008KT 32/16 A3011 RMK A01 T03200159  RH  038%=      5-min Rain = 0
KAM3 142312Z 09009KT 32/16 A3011 RMK A01 T03180159  RH  038%=      5-min Rain = 0
KAM3 142313Z 09008KT 32/16 A3011 RMK A01 T03170161  RH  039%=      5-min Rain = 0
KAM3 142314Z 09007KT 32/16 A3011 RMK A01 T03170160  RH  039%=      5-min Rain = 0
KAM3 142315Z 10006KT 32/16 A3011 RMK A01 T03170163  RH  040%=      5-min Rain = 0
KAM3 142316Z 09007KT 32/16 A3011 RMK A01 T03190163  RH  039%=      5-min Rain = 0
KAM3 142317Z 10008KT 32/16 A3011 RMK A01 T03190159  RH  038%=      5-min Rain = 0
KAM3 142318Z 11008KT 32/16 A3011 RMK A01 T03180159  RH  038%=      5-min Rain = 0
KAM3 142319Z 10006KT 32/16 A3011 RMK A01 T03170158  RH  038%=      5-min Rain = 0
KAM3 142320Z 09007KT 32/16 A3011 RMK A01 T03160158  RH  039%=      5-min Rain = 0
KAM3 142321Z 10007KT 32/16 A3011 RMK A01 T03150159  RH  039%=      5-min Rain = 0
KAM3 142322Z 10008KT 32/16 A3011 RMK A01 T03150160  RH  039%=      5-min Rain = 0
KAM3 142323Z 11006KT 32/16 A3011 RMK A01 T03150159  RH  039%=      5-min Rain = 0
KAM3 142324Z 10008KT 32/16 A3011 RMK A01 T03160162  RH  039%=      5-min Rain = 0
KAM3 142325Z 11008KT 32/16 A3011 RMK A01 T03170160  RH  039%=      5-min Rain = 0
KAM3 142326Z 10007KT 32/16 A3011 RMK A01 T03170160  RH  039%=      5-min Rain = 0
KAM3 142327Z 08009KT 32/16 A3011 RMK A01 T03170162  RH  039%=      5-min Rain = 0
KAM3 142328Z 08007KT 32/16 A3011 RMK A01 T03180158  RH  038%=      5-min Rain = 0
KAM3 142329Z 07007KT 32/16 A3011 RMK A01 T03180161  RH  039%=      5-min Rain = 0
KAM3 142330Z 08008KT 32/16 A3011 RMK A01 T03180161  RH  039%=      5-min Rain = 0
KAM3 142331Z 07009KT 32/16 A301 RMK A01 T03180158  RH  038%=      5-min Rain = 0
KAM3 142332Z 10007KT 32/16 A301 RMK A01 T03170161  RH  039%=      5-min Rain = 0
KAM3 142333Z 12007KT 32/16 A301 RMK A01 T03170161  RH  039%=      5-min Rain = 0
KAM3 142334Z 12007KT 32/16 A301 RMK A01 T03180159  RH  038%=      5-min Rain = 0
KAM3 142335Z 10007KT 32/16 A301 RMK A01 T03170160  RH  039%=      5-min Rain = 0
KAM3 142336Z 09008KT 32/16 A301 RMK A01 T03170159  RH  039%=      5-min Rain = 0
KAM3 142337Z 09007KT 32/16 A301 RMK A01 T03160158  RH  038%=      5-min Rain = 0
KAM3 142338Z 11007KT 32/16 A301 RMK A01 T03160160  RH  039%=      5-min Rain = 0
KAM3 142339Z 10005KT 32/16 A301 RMK A01 T03170160  RH  039%=      5-min Rain = 0
KAM3 142340Z 09005KT 32/16 A301 RMK A01 T03180162  RH  039%=      5-min Rain = 0
KAM3 142341Z 11008KT 32/16 A301 RMK A01 T03200163  RH  039%=      5-min Rain = 0
KAM3 142342Z 10009KT 32/16 A301 RMK A01 T03200159  RH  038%=      5-min Rain = 0
KAM3 142343Z 10006KT 32/16 A301 RMK A01 T03180159  RH  038%=      5-min Rain = 0
KAM3 142344Z 11008KT 32/16 A301 RMK A01 T03170159  RH  039%=      5-min Rain = 0
KAM3 142345Z 10007KT 32/16 A301 RMK A01 T03170160  RH  039%=      5-min Rain = 0
KAM3 142346Z 10009KT 32/16 A301 RMK A01 T03170159  RH  039%=      5-min Rain = 0
KAM3 142347Z 11009KT 32/16 A301 RMK A01 T03160156  RH  038%=      5-min Rain = 0
KAM3 142348Z 10008KT 32/16 A301 RMK A01 T03150156  RH  038%=      5-min Rain = 0
KAM3 142349Z 10009KT 32/16 A301 RMK A01 T03150157  RH  039%=      5-min Rain = 0
KAM3 142350Z 10008KT 32/16 A301 RMK A01 T03150157  RH  039%=      5-min Rain = 0
KAM3 142351Z 11007KT 31/16 A301 RMK A01 T03140158  RH  039%=      5-min Rain = 0
KAM3 142352Z 12009KT 31/16 A301 RMK A01 T03140158  RH  039%=      5-min Rain = 0
KAM3 142353Z 12007KT 31/16 A301 RMK A01 T03140159  RH  039%=      5-min Rain = 0
KAM3 142354Z 12008KT 32/16 A301 RMK A01 T03150158  RH  039%=      5-min Rain = 0
KAM3 142355Z 11008KT 31/16 A301 RMK A01 T03140156  RH  039%=      5-min Rain = 0
KAM3 142356Z 11009KT 31/15 A301 RMK A01 T03120153  RH  038%=      5-min Rain = 0
KAM3 142357Z 10008KT 31/15 A301 RMK A01 T03100153  RH  039%=      5-min Rain = 0
KAM3 142358Z 10007KT 31/15 A301 RMK A01 T03090154  RH  039%=      5-min Rain = 0
KAM3 142359Z 12006KT 31/16 A301 RMK A01 T03090155  RH  039%=      5-min Rain = 0
KAM3 150000Z 12006KT 31/16 A301 RMK A01 T03090155  RH  040%=      5-min Rain = 0
KAM3 150001Z 12006KT 31/16 A301 RMK A01 T03080157  RH  040%=      5-min Rain = 0
KAM3 150002Z 11008KT 31/15 A301 RMK A01 T03090154  RH  039%=      5-min Rain = 0
KAM3 150003Z 11008KT 31/15 A301 RMK A01 T03080153  RH  039%=      5-min Rain = 0
KAM3 150004Z 11008KT 31/15 A301 RMK A01 T03090152  RH  039%=      5-min Rain = 0
KAM3 150005Z 11007KT 31/15 A301 RMK A01 T03100151  RH  038%=      5-min Rain = 0
KAM3 150006Z 10006KT 31/15 A301 RMK A01 T03100153  RH  039%=      5-min Rain = 0
KAM3 150007Z 11006KT 31/16 A301 RMK A01 T03100155  RH  039%=      5-min Rain = 0
KAM3 150008Z 11006KT 31/16 A301 RMK A01 T03110156  RH  039%=      5-min Rain = 0
KAM3 150009Z 10007KT 31/16 A301 RMK A01 T03120156  RH  039%=      5-min Rain = 0
KAM3 150010Z 11006KT 31/16 A301 RMK A01 T03120155  RH  039%=      5-min Rain = 0
KAM3 150011Z 11006KT 31/16 A301 RMK A01 T03110158  RH  040%=      5-min Rain = 0
KAM3 150012Z 11007KT 31/16 A301 RMK A01 T03100155  RH  039%=      5-min Rain = 0
KAM3 150013Z 11006KT 31/15 A301 RMK A01 T03090154  RH  039%=      5-min Rain = 0
KAM3 150014Z 11005KT 31/16 A301 RMK A01 T03090156  RH  040%=      5-min Rain = 0
KAM3 150015Z 11007KT 31/15 A301 RMK A01 T03080154  RH  039%=      5-min Rain = 0
KAM3 150016Z 11006KT 31/16 A301 RMK A01 T03080156  RH  040%=      5-min Rain = 0
KAM3 150017Z 11008KT 31/16 A301 RMK A01 T03080155  RH  040%=      5-min Rain = 0
KAM3 150018Z 11007KT 31/15 A301 RMK A01 T03070154  RH  040%=      5-min Rain = 0
KAM3 150019Z 10007KT 31/16 A301 RMK A01 T03060155  RH  040%=      5-min Rain = 0
KAM3 150020Z 10007KT 31/15 A301 RMK A01 T03060153  RH  040%=      5-min Rain = 0
KAM3 150021Z 11005KT 31/15 A301 RMK A01 T03050154  RH  040%=      5-min Rain = 0
KAM3 150022Z 11005KT 31/16 A301 RMK A01 T03050156  RH  041%=      5-min Rain = 0
KAM3 150023Z 11006KT 31/16 A301 RMK A01 T03050158  RH  041%=      5-min Rain = 0
KAM3 150024Z 11007KT 31/16 A301 RMK A01 T03050156  RH  040%=      5-min Rain = 0
KAM3 150025Z 11007KT 31/16 A301 RMK A01 T03060155  RH  040%=      5-min Rain = 0
KAM3 150026Z 10007KT 31/15 A301 RMK A01 T03060153  RH  040%=      5-min Rain = 0
KAM3 150027Z 11005KT 31/15 A301 RMK A01 T03070154  RH  040%=      5-min Rain = 0
KAM3 150028Z 09006KT 31/16 A301 RMK A01 T03070155  RH  040%=      5-min Rain = 0
KAM3 150029Z 10007KT 31/15 A301 RMK A01 T03070154  RH  040%=      5-min Rain = 0
KAM3 150030Z 10008KT 31/15 A301 RMK A01 T03080153  RH  039%=      5-min Rain = 0
KAM3 150031Z 10006KT 31/15 A301 RMK A01 T03080153  RH  039%=      5-min Rain = 0
KAM3 150032Z 10006KT 31/15 A301 RMK A01 T03080153  RH  039%=      5-min Rain = 0
KAM3 150033Z 10006KT 31/15 A301 RMK A01 T03070152  RH  039%=      5-min Rain = 0
KAM3 150034Z 09006KT 31/15 A301 RMK A01 T03070154  RH  039%=      5-min Rain = 0
KAM3 150035Z 10006KT 31/15 A3011 RMK A01 T03070154  RH  039%=      5-min Rain = 0
KAM3 150036Z 11005KT 31/15 A3011 RMK A01 T03070153  RH  039%=      5-min Rain = 0
KAM3 150037Z 11004KT 31/16 A3011 RMK A01 T03070155  RH  040%=      5-min Rain = 0
KAM3 150038Z 11005KT 31/16 A3011 RMK A01 T03070156  RH  040%=      5-min Rain = 0
KAM3 150039Z 10006KT 31/15 A3011 RMK A01 T03070154  RH  040%=      5-min Rain = 0
KAM3 150040Z 10005KT 31/15 A3011 RMK A01 T03060154  RH  040%=      5-min Rain = 0
KAM3 150041Z 11004KT 31/16 A3011 RMK A01 T03060157  RH  041%=      5-min Rain = 0
KAM3 150042Z 11004KT 31/16 A3011 RMK A01 T03050157  RH  041%=      5-min Rain = 0
KAM3 150043Z 11005KT 30/16 A3011 RMK A01 T03040157  RH  041%=      5-min Rain = 0
KAM3 150044Z 10006KT 30/16 A3011 RMK A01 T03040155  RH  041%=      5-min Rain = 0
KAM3 150045Z 11007KT 30/15 A3011 RMK A01 T03030152  RH  040%=      5-min Rain = 0
KAM3 150046Z 11007KT 30/15 A3011 RMK A01 T03020150  RH  040%=      5-min Rain = 0
KAM3 150047Z 10005KT 30/15 A301 RMK A01 T03020150  RH  040%=      5-min Rain = 0
KAM3 150048Z 10007KT 30/15 A301 RMK A01 T03010150  RH  040%=      5-min Rain = 0
KAM3 150049Z 10007KT 30/15 A301 RMK A01 T03000149  RH  040%=      5-min Rain = 0
KAM3 150050Z 10005KT 30/15 A301 RMK A01 T02990150  RH  040%=      5-min Rain = 0
KAM3 150051Z 10006KT 30/15 A301 RMK A01 T02980151  RH  041%=      5-min Rain = 0
KAM3 150052Z 10006KT 30/15 A301 RMK A01 T02970150  RH  041%=      5-min Rain = 0
KAM3 150053Z 10006KT 30/15 A301 RMK A01 T02960150  RH  041%=      5-min Rain = 0
KAM3 150054Z 10007KT 30/15 A301 RMK A01 T02960151  RH  041%=      5-min Rain = 0
KAM3 150055Z 10008KT 30/15 A301 RMK A01 T02950148  RH  041%=      5-min Rain = 0
KAM3 150056Z 11007KT 30/15 A301 RMK A01 T02950148  RH  041%=      5-min Rain = 0
KAM3 150057Z 10006KT 29/15 A301 RMK A01 T02940149  RH  041%=      5-min Rain = 0
KAM3 150058Z 10007KT 29/15 A301 RMK A01 T02930150  RH  042%=      5-min Rain = 0
KAM3 150059Z 10007KT 29/15 A301 RMK A01 T02930149  RH  042%=      5-min Rain = 0
KAM3 150100Z 10007KT 29/15 A301 RMK A01 T02920150  RH  042%=      5-min Rain = 0
KAM3 150101Z 10007KT 29/15 A3011 RMK A01 T02910150  RH  042%=      5-min Rain = 0
KAM3 150102Z 10007KT 29/15 A3011 RMK A01 T02900150  RH  042%=      5-min Rain = 0
KAM3 150103Z 10006KT 29/15 A3011 RMK A01 T02900148  RH  042%=      5-min Rain = 0
KAM3 150104Z 10006KT 29/15 A3011 RMK A01 T02900150  RH  043%=      5-min Rain = 0
KAM3 150105Z 10006KT 29/15 A3011 RMK A01 T02890150  RH  043%=      5-min Rain = 0
KAM3 150106Z 10007KT 29/15 A3011 RMK A01 T02880150  RH  043%=      5-min Rain = 0
KAM3 150107Z 10007KT 29/15 A3011 RMK A01 T02870150  RH  043%=      5-min Rain = 0
KAM3 150108Z 10006KT 29/15 A3011 RMK A01 T02870151  RH  043%=      5-min Rain = 0
KAM3 150109Z 11006KT 29/15 A3011 RMK A01 T02860151  RH  044%=      5-min Rain = 0
KAM3 150110Z 11006KT 29/15 A3011 RMK A01 T02860150  RH  044%=      5-min Rain = 0
KAM3 150111Z 10006KT 29/15 A3011 RMK A01 T02850151  RH  044%=      5-min Rain = 0
KAM3 150112Z 11007KT 29/15 A3011 RMK A01 T02850151  RH  044%=      5-min Rain = 0
KAM3 150113Z 10006KT 29/15 A3011 RMK A01 T02850150  RH  044%=      5-min Rain = 0
KAM3 150114Z 10006KT 29/15 A3011 RMK A01 T02850151  RH  044%=      5-min Rain = 0
KAM3 150115Z 10006KT 28/15 A3011 RMK A01 T02840153  RH  045%=      5-min Rain = 0
KAM3 150116Z 11006KT 28/15 A3011 RMK A01 T02840152  RH  045%=      5-min Rain = 0
KAM3 150117Z 10006KT 28/15 A3011 RMK A01 T02830152  RH  045%=      5-min Rain = 0
KAM3 150118Z 10006KT 28/15 A3011 RMK A01 T02830153  RH  045%=      5-min Rain = 0
KAM3 150119Z 10007KT 28/15 A3011 RMK A01 T02830153  RH  045%=      5-min Rain = 0
KAM3 150120Z 10006KT 28/15 A3011 RMK A01 T02820153  RH  045%=      5-min Rain = 0
KAM3 150121Z 10006KT 28/15 A3011 RMK A01 T02820153  RH  045%=      5-min Rain = 0
KAM3 150122Z 10006KT 28/15 A3011 RMK A01 T02820154  RH  046%=      5-min Rain = 0
KAM3 150123Z 11006KT 28/15 A3011 RMK A01 T02820154  RH  046%=      5-min Rain = 0
KAM3 150124Z 10006KT 28/15 A3011 RMK A01 T02800154  RH  046%=      5-min Rain = 0
KAM3 150125Z 11006KT 28/16 A3011 RMK A01 T02800155  RH  047%=      5-min Rain = 0
KAM3 150126Z 11006KT 28/16 A3011 RMK A01 T02790155  RH  047%=      5-min Rain = 0
KAM3 150127Z 12005KT 28/16 A3012 RMK A01 T02780156  RH  047%=      5-min Rain = 0
KAM3 150128Z 12005KT 28/16 A3012 RMK A01 T02770156  RH  048%=      5-min Rain = 0
KAM3 150129Z 12005KT 28/16 A3012 RMK A01 T02760156  RH  048%=      5-min Rain = 0
KAM3 150130Z 12005KT 28/16 A3012 RMK A01 T02750156  RH  048%=      5-min Rain = 0
KAM3 150131Z 12005KT 27/16 A3012 RMK A01 T02740156  RH  049%=      5-min Rain = 0
KAM3 150132Z 12005KT 27/16 A3012 RMK A01 T02740157  RH  049%=      5-min Rain = 0
KAM3 150133Z 12006KT 27/16 A3012 RMK A01 T02740157  RH  049%=      5-min Rain = 0
KAM3 150134Z 12006KT 27/16 A3012 RMK A01 T02730156  RH  049%=      5-min Rain = 0
KAM3 150135Z 12007KT 27/16 A3012 RMK A01 T02730157  RH  049%=      5-min Rain = 0
KAM3 150136Z 12006KT 27/16 A3012 RMK A01 T02730156  RH  049%=      5-min Rain = 0
KAM3 150137Z 12006KT 27/16 A3012 RMK A01 T02730156  RH  049%=      5-min Rain = 0
KAM3 150138Z 12007KT 27/16 A3012 RMK A01 T02730155  RH  049%=      5-min Rain = 0
KAM3 150139Z 12006KT 27/16 A3012 RMK A01 T02730155  RH  049%=      5-min Rain = 0
KAM3 150140Z 12006KT 27/16 A3012 RMK A01 T02730156  RH  049%=      5-min Rain = 0
KAM3 150141Z 12006KT 27/16 A3012 RMK A01 T02720156  RH  049%=      5-min Rain = 0
KAM3 150142Z 11006KT 27/16 A3012 RMK A01 T02710156  RH  049%=      5-min Rain = 0
KAM3 150143Z 11007KT 27/15 A3012 RMK A01 T02710154  RH  049%=      5-min Rain = 0
KAM3 150144Z 11007KT 27/15 A3012 RMK A01 T02710153  RH  048%=      5-min Rain = 0
KAM3 150145Z 12006KT 27/15 A3012 RMK A01 T02720153  RH  048%=      5-min Rain = 0
KAM3 150146Z 11006KT 27/15 A3012 RMK A01 T02720154  RH  048%=      5-min Rain = 0
KAM3 150147Z 11007KT 27/15 A3012 RMK A01 T02720154  RH  048%=      5-min Rain = 0
KAM3 150148Z 12006KT 27/15 A3012 RMK A01 T02720154  RH  048%=      5-min Rain = 0
KAM3 150149Z 12007KT 27/15 A3012 RMK A01 T02710153  RH  048%=      5-min Rain = 0
KAM3 150150Z 12007KT 27/15 A3012 RMK A01 T02710151  RH  048%=      5-min Rain = 0
KAM3 150151Z 12007KT 27/15 A3012 RMK A01 T02710151  RH  048%=      5-min Rain = 0
KAM3 150152Z 12007KT 27/15 A3012 RMK A01 T02720152  RH  048%=      5-min Rain = 0
KAM3 150153Z 12007KT 27/15 A3012 RMK A01 T02720152  RH  048%=      5-min Rain = 0
KAM3 150154Z 12007KT 27/15 A3012 RMK A01 T02720152  RH  048%=      5-min Rain = 0
KAM3 150155Z 12008KT 27/15 A3012 RMK A01 T02720152  RH  048%=      5-min Rain = 0
KAM3 150156Z 12007KT 27/15 A3012 RMK A01 T02710152  RH  048%=      5-min Rain = 0
KAM3 150157Z 12007KT 27/15 A3012 RMK A01 T02710151  RH  048%=      5-min Rain = 0
KAM3 150158Z 12008KT 27/15 A3012 RMK A01 T02710151  RH  048%=      5-min Rain = 0
KAM3 150159Z 12007KT 27/15 A3012 RMK A01 T02710151  RH  048%=      5-min Rain = 0
KAM3 150200Z 13006KT 27/15 A3012 RMK A01 T02710152  RH  048%=      5-min Rain = 0
KAM3 150201Z 13006KT 27/15 A3012 RMK A01 T02710153  RH  048%=      5-min Rain = 0
KAM3 150202Z 13006KT 27/15 A3012 RMK A01 T02700153  RH  049%=      5-min Rain = 0
KAM3 150203Z 13006KT 27/15 A3012 RMK A01 T02690152  RH  049%=      5-min Rain = 0
KAM3 150204Z 13006KT 27/15 A3012 RMK A01 T02690153  RH  049%=      5-min Rain = 0
KAM3 150205Z 13006KT 27/15 A3012 RMK A01 T02680152  RH  049%=      5-min Rain = 0
KAM3 150206Z 13006KT 27/15 A3012 RMK A01 T02680153  RH  049%=      5-min Rain = 0
KAM3 150207Z 13005KT 27/15 A3012 RMK A01 T02670153  RH  050%=      5-min Rain = 0
KAM3 150208Z 13007KT 27/15 A3012 RMK A01 T02660153  RH  050%=      5-min Rain = 0
KAM3 150209Z 13006KT 27/15 A3012 RMK A01 T02650152  RH  050%=      5-min Rain = 0
KAM3 150210Z 12006KT 27/15 A3012 RMK A01 T02650153  RH  050%=      5-min Rain = 0
KAM3 150211Z 13006KT 27/15 A3012 RMK A01 T02650153  RH  050%=      5-min Rain = 0
KAM3 150212Z 13006KT 27/15 A3012 RMK A01 T02650153  RH  050%=      5-min Rain = 0
KAM3 150213Z 13006KT 26/15 A3012 RMK A01 T02640154  RH  051%=      5-min Rain = 0
KAM3 150214Z 13005KT 26/15 A3012 RMK A01 T02630153  RH  051%=      5-min Rain = 0
KAM3 150215Z 13005KT 26/15 A3013 RMK A01 T02630154  RH  051%=      5-min Rain = 0
KAM3 150216Z 13006KT 26/15 A3012 RMK A01 T02630153  RH  051%=      5-min Rain = 0
KAM3 150217Z 12006KT 26/15 A3012 RMK A01 T02630153  RH  051%=      5-min Rain = 0
KAM3 150218Z 13006KT 26/15 A3012 RMK A01 T02630153  RH  051%=      5-min Rain = 0
KAM3 150219Z 13005KT 26/15 A3012 RMK A01 T02630153  RH  051%=      5-min Rain = 0
KAM3 150220Z 13006KT 26/15 A3012 RMK A01 T02630152  RH  051%=      5-min Rain = 0
KAM3 150221Z 13005KT 26/15 A3013 RMK A01 T02620153  RH  051%=      5-min Rain = 0
KAM3 150222Z 13005KT 26/15 A3013 RMK A01 T02620153  RH  051%=      5-min Rain = 0
KAM3 150223Z 13005KT 26/15 A3013 RMK A01 T02620153  RH  051%=      5-min Rain = 0
KAM3 150224Z 14005KT 26/15 A3013 RMK A01 T02610153  RH  051%=      5-min Rain = 0
KAM3 150225Z 14005KT 26/15 A3013 RMK A01 T02610153  RH  051%=      5-min Rain = 0
KAM3 150226Z 14005KT 26/15 A3013 RMK A01 T02600153  RH  051%=      5-min Rain = 0
KAM3 150227Z 15005KT 26/15 A3013 RMK A01 T02600153  RH  052%=      5-min Rain = 0
KAM3 150228Z 15005KT 26/15 A3013 RMK A01 T02590153  RH  052%=      5-min Rain = 0
KAM3 150229Z 15005KT 26/15 A3013 RMK A01 T02580153  RH  052%=      5-min Rain = 0
KAM3 150230Z 15006KT 26/15 A3013 RMK A01 T02580153  RH  052%=      5-min Rain = 0
KAM3 150231Z 15005KT 26/15 A3013 RMK A01 T02570153  RH  053%=      5-min Rain = 0
KAM3 150232Z 15006KT 26/15 A3013 RMK A01 T02570152  RH  053%=      5-min Rain = 0
KAM3 150233Z 15005KT 26/15 A3013 RMK A01 T02570152  RH  052%=      5-min Rain = 0
KAM3 150234Z 15005KT 26/15 A3013 RMK A01 T02570151  RH  052%=      5-min Rain = 0
KAM3 150235Z 14005KT 26/15 A3013 RMK A01 T02580152  RH  052%=      5-min Rain = 0
KAM3 150236Z 16006KT 26/15 A3013 RMK A01 T02580152  RH  052%=      5-min Rain = 0
KAM3 150237Z 15006KT 26/15 A3013 RMK A01 T02580152  RH  052%=      5-min Rain = 0
KAM3 150238Z 15006KT 26/15 A3013 RMK A01 T02580153  RH  052%=      5-min Rain = 0
KAM3 150239Z 15007KT 26/15 A3013 RMK A01 T02570152  RH  052%=      5-min Rain = 0
KAM3 150240Z 15006KT 26/15 A3013 RMK A01 T02570151  RH  052%=      5-min Rain = 0
KAM3 150241Z 15006KT 26/15 A3013 RMK A01 T02580152  RH  052%=      5-min Rain = 0
KAM3 150242Z 15006KT 26/15 A3013 RMK A01 T02580152  RH  052%=      5-min Rain = 0
KAM3 150243Z 15006KT 26/15 A3013 RMK A01 T02580153  RH  052%=      5-min Rain = 0
KAM3 150244Z 16006KT 26/15 A3013 RMK A01 T02570154  RH  053%=      5-min Rain = 0
KAM3 150245Z 16006KT 26/15 A3013 RMK A01 T02560153  RH  053%=      5-min Rain = 0
KAM3 150246Z 16007KT 26/15 A3013 RMK A01 T02560152  RH  053%=      5-min Rain = 0
KAM3 150247Z 16007KT 26/15 A3013 RMK A01 T02560152  RH  053%=      5-min Rain = 0
KAM3 150248Z 15008KT 26/15 A3013 RMK A01 T02560152  RH  053%=      5-min Rain = 0
KAM3 150249Z 16008KT 26/15 A3013 RMK A01 T02570151  RH  052%=      5-min Rain = 0
KAM3 150250Z 16007KT 26/15 A3013 RMK A01 T02570152  RH  052%=      5-min Rain = 0
KAM3 150251Z 15007KT 26/15 A3013 RMK A01 T02570153  RH  053%=      5-min Rain = 0
KAM3 150252Z 16007KT 26/15 A3013 RMK A01 T02570153  RH  053%=      5-min Rain = 0
KAM3 150253Z 15008KT 26/15 A3014 RMK A01 T02560153  RH  053%=      5-min Rain = 0
KAM3 150254Z 15007KT 26/15 A3014 RMK A01 T02560152  RH  053%=      5-min Rain = 0
KAM3 150255Z 15007KT 26/15 A3014 RMK A01 T02560152  RH  052%=      5-min Rain = 0
KAM3 150256Z 14007KT 26/15 A3014 RMK A01 T02570151  RH  052%=      5-min Rain = 0
KAM3 150257Z 15007KT 26/15 A3014 RMK A01 T02580152  RH  052%=      5-min Rain = 0
KAM3 150258Z 16007KT 26/15 A3014 RMK A01 T02580153  RH  053%=      5-min Rain = 0
KAM3 150259Z 16007KT 26/16 A3014 RMK A01 T02580155  RH  053%=      5-min Rain = 0
KAM3 150300Z 15006KT 26/16 A3014 RMK A01 T02560155  RH  053%=      5-min Rain = 0
KAM3 150301Z 15006KT 26/16 A3014 RMK A01 T02560155  RH  053%=      5-min Rain = 0
KAM3 150302Z 15007KT 26/15 A3014 RMK A01 T02550154  RH  054%=      5-min Rain = 0
KAM3 150303Z 15007KT 26/15 A3014 RMK A01 T02550153  RH  053%=      5-min Rain = 0
KAM3 150304Z 15007KT 26/15 A3014 RMK A01 T02550153  RH  053%=      5-min Rain = 0
KAM3 150305Z 15007KT 26/15 A3014 RMK A01 T02550153  RH  053%=      5-min Rain = 0
KAM3 150306Z 15007KT 26/15 A3014 RMK A01 T02550153  RH  053%=      5-min Rain = 0
KAM3 150307Z 15007KT 26/15 A3014 RMK A01 T02550153  RH  053%=      5-min Rain = 0
KAM3 150308Z 15008KT 26/15 A3014 RMK A01 T02550154  RH  053%=      5-min Rain = 0
KAM3 150309Z 15007KT 26/15 A3014 RMK A01 T02550153  RH  053%=      5-min Rain = 0
KAM3 150310Z 15008KT 26/15 A3014 RMK A01 T02550153  RH  053%=      5-min Rain = 0
KAM3 150311Z 15008KT 25/15 A3014 RMK A01 T02540153  RH  054%=      5-min Rain = 0
KAM3 150312Z 15008KT 25/15 A3014 RMK A01 T02540154  RH  054%=      5-min Rain = 0
KAM3 150313Z 15008KT 25/15 A3015 RMK A01 T02540153  RH  054%=      5-min Rain = 0
KAM3 150314Z 15008KT 25/15 A3015 RMK A01 T02540153  RH  054%=      5-min Rain = 0
KAM3 150315Z 15008KT 25/15 A3015 RMK A01 T02540153  RH  054%=      5-min Rain = 0
KAM3 150316Z 15008KT 25/15 A3015 RMK A01 T02540153  RH  053%=      5-min Rain = 0
KAM3 150317Z 15008KT 25/15 A3015 RMK A01 T02540153  RH  054%=      5-min Rain = 0
KAM3 150318Z 15007KT 25/15 A3015 RMK A01 T02540153  RH  054%=      5-min Rain = 0
KAM3 150319Z 15008KT 25/15 A3015 RMK A01 T02540153  RH  054%=      5-min Rain = 0
KAM3 150320Z 15008KT 25/15 A3015 RMK A01 T02530153  RH  054%=      5-min Rain = 0
KAM3 150321Z 15007KT 25/15 A3015 RMK A01 T02540153  RH  054%=      5-min Rain = 0
KAM3 150322Z 15007KT 25/15 A3015 RMK A01 T02530153  RH  054%=      5-min Rain = 0
KAM3 150323Z 15007KT 25/15 A3015 RMK A01 T02530153  RH  054%=      5-min Rain = 0
KAM3 150324Z 15007KT 25/15 A3015 RMK A01 T02530153  RH  054%=      5-min Rain = 0
KAM3 150325Z 15007KT 25/15 A3015 RMK A01 T02530153  RH  054%=      5-min Rain = 0
KAM3 150326Z 15008KT 25/15 A3015 RMK A01 T02530152  RH  054%=      5-min Rain = 0
KAM3 150327Z 15007KT 25/15 A3015 RMK A01 T02530151  RH  053%=      5-min Rain = 0
KAM3 150328Z 15007KT 25/15 A3016 RMK A01 T02530151  RH  053%=      5-min Rain = 0
KAM3 150329Z 15008KT 25/15 A3016 RMK A01 T02530151  RH  053%=      5-min Rain = 0
KAM3 150330Z 15008KT 25/15 A3016 RMK A01 T02530151  RH  053%=      5-min Rain = 0
KAM3 150331Z 15008KT 25/15 A3016 RMK A01 T02540151  RH  053%=      5-min Rain = 0
KAM3 150332Z 15009KT 25/15 A3016 RMK A01 T02530150  RH  053%=      5-min Rain = 0
KAM3 150333Z 15011KT 25/15 A3016 RMK A01 T02540149  RH  052%=      5-min Rain = 0
KAM3 150334Z 15009KT 26/15 A3016 RMK A01 T02560149  RH  052%=      5-min Rain = 0
KAM3 150335Z 15008KT 26/15 A3016 RMK A01 T02570150  RH  052%=      5-min Rain = 0
KAM3 150336Z 15008KT 26/15 A3016 RMK A01 T02570150  RH  051%=      5-min Rain = 0
KAM3 150337Z 15009KT 26/15 A3016 RMK A01 T02570150  RH  052%=      5-min Rain = 0
KAM3 150338Z 15008KT 26/15 A3016 RMK A01 T02570150  RH  052%=      5-min Rain = 0
KAM3 150339Z 15008KT 26/15 A3016 RMK A01 T02570150  RH  052%=      5-min Rain = 0
KAM3 150340Z 15008KT 26/15 A3017 RMK A01 T02560150  RH  052%=      5-min Rain = 0
KAM3 150341Z 15008KT 26/15 A3016 RMK A01 T02560150  RH  052%=      5-min Rain = 0
KAM3 150342Z 15008KT 26/15 A3016 RMK A01 T02560150  RH  052%=      5-min Rain = 0
KAM3 150343Z 15008KT 26/15 A3016 RMK A01 T02560150  RH  052%=      5-min Rain = 0
KAM3 150344Z 15007KT 26/15 A3016 RMK A01 T02550150  RH  052%=      5-min Rain = 0
KAM3 150345Z 15007KT 26/15 A3017 RMK A01 T02550151  RH  052%=      5-min Rain = 0
KAM3 150346Z 15009KT 26/15 A3017 RMK A01 T02550150  RH  052%=      5-min Rain = 0
KAM3 150347Z 15008KT 25/15 A3017 RMK A01 T02540150  RH  052%=      5-min Rain = 0
KAM3 150348Z 15008KT 26/15 A3017 RMK A01 T02550151  RH  053%=      5-min Rain = 0
KAM3 150349Z 15008KT 25/15 A3017 RMK A01 T02540151  RH  053%=      5-min Rain = 0
KAM3 150350Z 15009KT 25/15 A3017 RMK A01 T02530151  RH  053%=      5-min Rain = 0
KAM3 150351Z 15007KT 25/15 A3017 RMK A01 T02530151  RH  053%=      5-min Rain = 0
KAM3 150352Z 15008KT 25/15 A3017 RMK A01 T02530151  RH  053%=      5-min Rain = 0
KAM3 150353Z 15008KT 25/15 A3017 RMK A01 T02530151  RH  053%=      5-min Rain = 0
KAM3 150354Z 15008KT 25/15 A3017 RMK A01 T02530151  RH  053%=      5-min Rain = 0
KAM3 150355Z 15007KT 25/15 A3017 RMK A01 T02530151  RH  053%=      5-min Rain = 0
KAM3 150356Z 15008KT 25/15 A3017 RMK A01 T02530152  RH  053%=      5-min Rain = 0
KAM3 150357Z 15007KT 25/15 A3017 RMK A01 T02530152  RH  053%=      5-min Rain = 0
KAM3 150358Z 15008KT 25/15 A3017 RMK A01 T02530152  RH  054%=      5-min Rain = 0
KAM3 150359Z 15007KT 25/15 A3017 RMK A01 T02520152  RH  054%=      5-min Rain = 0
KAM3 150400Z 15008KT 25/15 A3017 RMK A01 T02520152  RH  054%=      5-min Rain = 0
KAM3 150401Z 15008KT 25/15 A3017 RMK A01 T02520152  RH  054%=      5-min Rain = 0
KAM3 150402Z 15008KT 25/15 A3017 RMK A01 T02520152  RH  054%=      5-min Rain = 0
KAM3 150403Z 15008KT 25/15 A3017 RMK A01 T02520152  RH  054%=      5-min Rain = 0
KAM3 150404Z 15007KT 25/15 A3017 RMK A01 T02520152  RH  054%=      5-min Rain = 0
KAM3 150405Z 15008KT 25/15 A3017 RMK A01 T02520152  RH  054%=      5-min Rain = 0
KAM3 150406Z 15008KT 25/15 A3017 RMK A01 T02520152  RH  054%=      5-min Rain = 0
KAM3 150407Z 15009KT 25/15 A3017 RMK A01 T02520152  RH  054%=      5-min Rain = 0
KAM3 150408Z 15008KT 25/15 A3017 RMK A01 T02530153  RH  054%=      5-min Rain = 0
KAM3 150409Z 15007KT 25/15 A3017 RMK A01 T02530154  RH  054%=      5-min Rain = 0
KAM3 150410Z 15008KT 25/15 A3017 RMK A01 T02530154  RH  054%=      5-min Rain = 0
KAM3 150411Z 15008KT 25/15 A3017 RMK A01 T02530154  RH  054%=      5-min Rain = 0
KAM3 150412Z 15008KT 25/15 A3017 RMK A01 T02530154  RH  055%=      5-min Rain = 0
KAM3 150413Z 15009KT 25/16 A3017 RMK A01 T02530155  RH  055%=      5-min Rain = 0
KAM3 150414Z 14007KT 25/15 A3017 RMK A01 T02530154  RH  054%=      5-min Rain = 0
KAM3 150415Z 14008KT 25/16 A3017 RMK A01 T02530155  RH  054%=      5-min Rain = 0
KAM3 150416Z 15007KT 25/16 A3017 RMK A01 T02540156  RH  055%=      5-min Rain = 0
KAM3 150417Z 14007KT 25/16 A3017 RMK A01 T02540156  RH  055%=      5-min Rain = 0
KAM3 150418Z 15008KT 25/16 A3017 RMK A01 T02540156  RH  055%=      5-min Rain = 0
KAM3 150419Z 14007KT 25/16 A3017 RMK A01 T02530156  RH  055%=      5-min Rain = 0
KAM3 150420Z 15008KT 25/16 A3017 RMK A01 T02540156  RH  054%=      5-min Rain = 0
KAM3 150421Z 15008KT 26/16 A3017 RMK A01 T02550156  RH  054%=      5-min Rain = 0
KAM3 150422Z 14008KT 26/16 A3017 RMK A01 T02550155  RH  054%=      5-min Rain = 0
KAM3 150423Z 14008KT 26/16 A3017 RMK A01 T02560156  RH  054%=      5-min Rain = 0
KAM3 150424Z 15008KT 26/16 A3017 RMK A01 T02560156  RH  054%=      5-min Rain = 0
KAM3 150425Z 15008KT 26/16 A3017 RMK A01 T02560156  RH  054%=      5-min Rain = 0
KAM3 150426Z 15008KT 26/16 A3017 RMK A01 T02560156  RH  054%=      5-min Rain = 0
KAM3 150427Z 15008KT 26/16 A3017 RMK A01 T02560156  RH  054%=      5-min Rain = 0
KAM3 150428Z 15007KT 26/16 A3017 RMK A01 T02560156  RH  054%=      5-min Rain = 0
KAM3 150429Z 15008KT 26/16 A3017 RMK A01 T02560156  RH  054%=      5-min Rain = 0
KAM3 150430Z 15007KT 26/16 A3017 RMK A01 T02550157  RH  054%=      5-min Rain = 0
KAM3 150431Z 15008KT 26/16 A3017 RMK A01 T02550157  RH  055%=      5-min Rain = 0
KAM3 150432Z 15008KT 25/16 A3017 RMK A01 T02540156  RH  055%=      5-min Rain = 0
KAM3 150433Z 15008KT 25/16 A3017 RMK A01 T02540156  RH  054%=      5-min Rain = 0
KAM3 150434Z 15009KT 25/16 A3017 RMK A01 T02540155  RH  054%=      5-min Rain = 0
KAM3 150435Z 15008KT 26/16 A3017 RMK A01 T02550155  RH  054%=      5-min Rain = 0
KAM3 150436Z 15009KT 26/15 A3017 RMK A01 T02550154  RH  054%=      5-min Rain = 0
KAM3 150437Z 15008KT 26/15 A3017 RMK A01 T02550154  RH  053%=      5-min Rain = 0
KAM3 150438Z 15009KT 26/15 A3017 RMK A01 T02550154  RH  054%=      5-min Rain = 0
KAM3 150439Z 15009KT 26/15 A3017 RMK A01 T02550154  RH  053%=      5-min Rain = 0
KAM3 150440Z 15009KT 26/15 A3017 RMK A01 T02550154  RH  053%=      5-min Rain = 0
KAM3 150441Z 15008KT 26/15 A3017 RMK A01 T02550154  RH  053%=      5-min Rain = 0
KAM3 150442Z 15008KT 26/15 A3017 RMK A01 T02550154  RH  053%=      5-min Rain = 0
KAM3 150443Z 15008KT 26/15 A3017 RMK A01 T02550153  RH  053%=      5-min Rain = 0
KAM3 150444Z 15008KT 26/15 A3017 RMK A01 T02550153  RH  053%=      5-min Rain = 0
KAM3 150445Z 15009KT 26/15 A3017 RMK A01 T02550153  RH  053%=      5-min Rain = 0
KAM3 150446Z 15009KT 26/15 A3017 RMK A01 T02560153  RH  053%=      5-min Rain = 0
KAM3 150447Z 15010KT 26/15 A3017 RMK A01 T02550153  RH  053%=      5-min Rain = 0
KAM3 150448Z 14008KT 26/15 A3017 RMK A01 T02550153  RH  053%=      5-min Rain = 0
KAM3 150449Z 15009KT 26/15 A3017 RMK A01 T02560153  RH  053%=      5-min Rain = 0
KAM3 150450Z 15009KT 26/15 A3017 RMK A01 T02550153  RH  053%=      5-min Rain = 0
KAM3 150451Z 15009KT 26/15 A3017 RMK A01 T02550153  RH  053%=      5-min Rain = 0
KAM3 150452Z 15010KT 26/15 A3017 RMK A01 T02550153  RH  053%=      5-min Rain = 0
KAM3 150453Z 15011KT 26/15 A3017 RMK A01 T02550153  RH  053%=      5-min Rain = 0
KAM3 150454Z 15008KT 26/15 A3017 RMK A01 T02560153  RH  053%=      5-min Rain = 0
KAM3 150455Z 15008KT 26/15 A3017 RMK A01 T02560153  RH  053%=      5-min Rain = 0
KAM3 150456Z 15010KT 26/15 A3017 RMK A01 T02560153  RH  053%=      5-min Rain = 0
KAM3 150457Z 15009KT 26/15 A3017 RMK A01 T02560154  RH  053%=      5-min Rain = 0
KAM3 150458Z 14009KT 26/15 A3017 RMK A01 T02560153  RH  053%=      5-min Rain = 0
KAM3 150459Z 14009KT 26/15 A3017 RMK A01 T02560153  RH  053%=      5-min Rain = 0

Page generated in 0.1211 seconds.